Time,TemperatureF,DewpointF,PressureIn,WindDirection,WindDirectionDegrees,WindSpeedMPH,WindSpeedGustMPH,Humidity,HourlyPrecipIn,Conditions,Clouds,dailyrainin,SoftwareType,DateUTC
2013-01-23 00:00:00,30.7,7.3,30.21,North,0,0.0,0.0,37,0.00,,,0.00,WUHU21636XXSP,2013-01-23 07:00:00,
2013-01-23 00:01:00,30.7,7.3,30.20,North,0,0.0,0.0,37,0.00,,,0.00,WUHU21636XXSP,2013-01-23 07:01:00,
2013-01-23 00:03:00,30.6,7.2,30.21,North,0,4.6,4.6,37,0.00,,,0.00,WUHU21636XXSP,2013-01-23 07:03:00,
2013-01-23 00:05:00,30.6,7.2,30.21,North,0,3.8,4.6,37,0.00,,,0.00,WUHU21636XXSP,2013-01-23 07:05:00,
2013-01-23 00:06:00,30.6,7.2,30.21,North,0,2.8,4.6,37,0.00,,,0.00,WUHU21636XXSP,2013-01-23 07:06:00,
2013-01-23 00:08:00,30.6,7.2,30.21,North,0,0.0,4.6,37,0.00,,,0.00,WUHU21636XXSP,2013-01-23 07:08:00,
2013-01-23 00:10:00,30.6,7.2,30.20,North,0,3.8,4.6,37,0.00,,,0.00,WUHU21636XXSP,2013-01-23 07:10:00,
2013-01-23 00:11:00,30.6,7.2,30.21,North,0,3.6,4.6,37,0.00,,,0.00,WUHU21636XXSP,2013-01-23 07:11:00,
2013-01-23 00:12:00,30.6,7.2,30.21,North,0,2.5,4.6,37,0.00,,,0.00,WUHU21636XXSP,2013-01-23 07:12:00,
2013-01-23 00:14:00,30.6,7.2,30.21,North,0,0.0,4.6,37,0.00,,,0.00,WUHU21636XXSP,2013-01-23 07:14:00,
2013-01-23 00:16:00,30.4,7.0,30.20,North,0,0.0,3.8,37,0.00,,,0.00,WUHU21636XXSP,2013-01-23 07:16:00,
2013-01-23 00:17:00,30.4,7.0,30.20,ENE,67,0.0,3.8,37,0.00,,,0.00,WUHU21636XXSP,2013-01-23 07:17:00,
2013-01-23 00:19:00,30.4,7.0,30.20,ENE,67,0.0,3.8,38,0.00,,,0.00,WUHU21636XXSP,2013-01-23 07:19:00,
2013-01-23 00:21:00,30.4,7.0,30.20,NW,315,2.9,3.8,38,0.00,,,0.00,WUHU21636XXSP,2013-01-23 07:21:00,
2013-01-23 00:22:00,30.4,7.0,30.20,NW,315,2.9,2.9,38,0.00,,,0.00,WUHU21636XXSP,2013-01-23 07:22:00,
2013-01-23 00:24:00,30.4,7.0,30.20,NW,315,0.9,2.9,38,0.00,,,0.00,WUHU21636XXSP,2013-01-23 07:24:00,
2013-01-23 00:26:00,30.4,7.0,30.20,NW,315,0.0,2.9,38,0.00,,,0.00,WUHU21636XXSP,2013-01-23 07:26:00,
2013-01-23 00:27:00,30.2,7.5,30.20,NW,315,2.0,2.9,38,0.00,,,0.00,WUHU21636XXSP,2013-01-23 07:27:00,
2013-01-23 00:29:00,30.0,7.3,30.20,NW,315,5.1,5.1,38,0.00,,,0.00,WUHU21636XXSP,2013-01-23 07:29:00,
2013-01-23 00:31:00,30.0,7.3,30.20,NW,315,5.1,5.1,38,0.00,,,0.00,WUHU21636XXSP,2013-01-23 07:31:00,
2013-01-23 00:32:00,30.0,7.3,30.20,NW,315,0.8,5.1,38,0.00,,,0.00,WUHU21636XXSP,2013-01-23 07:32:00,
2013-01-23 00:33:00,30.0,7.3,30.20,NW,315,0.6,5.1,38,0.00,,,0.00,WUHU21636XXSP,2013-01-23 07:33:00,
2013-01-23 00:34:00,30.0,7.3,30.20,NW,315,2.0,5.1,38,0.00,,,0.00,WUHU21636XXSP,2013-01-23 07:34:00,
2013-01-23 00:36:00,30.0,7.3,30.20,NW,315,0.8,5.1,38,0.00,,,0.00,WUHU21636XXSP,2013-01-23 07:36:00,
2013-01-23 00:38:00,30.0,7.3,30.20,NW,315,0.0,5.1,38,0.00,,,0.00,WUHU21636XXSP,2013-01-23 07:38:00,
2013-01-23 00:39:00,30.0,7.3,30.20,NW,315,0.0,5.1,38,0.00,,,0.00,WUHU21636XXSP,2013-01-23 07:39:00,
2013-01-23 00:42:00,29.8,7.2,30.20,NW,315,0.0,2.0,38,0.00,,,0.00,WUHU21636XXSP,2013-01-23 07:42:00,
2013-01-23 00:43:00,29.8,7.2,30.20,NW,315,0.0,2.0,38,0.00,,,0.00,WUHU21636XXSP,2013-01-23 07:43:00,
2013-01-23 00:44:00,29.8,7.2,30.20,NW,315,0.0,2.0,39,0.00,,,0.00,WUHU21636XXSP,2013-01-23 07:44:00,
2013-01-23 00:47:00,29.8,7.2,30.20,NW,315,0.0,0.0,39,0.00,,,0.00,WUHU21636XXSP,2013-01-23 07:47:00,
2013-01-23 00:48:00,29.8,7.2,30.20,NW,315,0.0,0.0,39,0.00,,,0.00,WUHU21636XXSP,2013-01-23 07:48:00,
2013-01-23 00:49:00,29.8,7.2,30.20,NW,315,0.0,0.0,39,0.00,,,0.00,WUHU21636XXSP,2013-01-23 07:49:00,
2013-01-23 00:53:00,29.8,7.2,30.20,NW,315,4.2,4.2,38,0.00,,,0.00,WUHU21636XXSP,2013-01-23 07:53:00,
2013-01-23 00:54:00,29.8,7.2,30.20,NW,315,4.2,4.2,38,0.00,,,0.00,WUHU21636XXSP,2013-01-23 07:54:00,
2013-01-23 00:58:00,29.8,7.7,30.20,NW,315,0.0,4.2,39,0.00,,,0.00,WUHU21636XXSP,2013-01-23 07:58:00,
2013-01-23 00:59:00,29.8,7.7,30.19,NW,315,0.0,4.2,38,0.00,,,0.00,WUHU21636XXSP,2013-01-23 07:59:00,
2013-01-23 01:03:00,29.8,7.7,30.20,NW,315,3.1,4.2,38,0.00,,,0.00,WUHU21636XXSP,2013-01-23 08:03:00,
2013-01-23 01:04:00,29.8,7.7,30.19,NW,315,0.8,3.1,39,0.00,,,0.00,WUHU21636XXSP,2013-01-23 08:04:00,
2013-01-23 01:08:00,30.0,7.3,30.19,NNW,337,7.6,7.6,38,0.00,,,0.00,WUHU21636XXSP,2013-01-23 08:08:00,
2013-01-23 01:10:00,30.0,7.3,30.19,North,353,2.8,7.6,38,0.00,,,0.00,WUHU21636XXSP,2013-01-23 08:10:00,
2013-01-23 01:13:00,30.0,7.3,30.19,ESE,112,0.0,7.6,38,0.00,,,0.00,WUHU21636XXSP,2013-01-23 08:13:00,
2013-01-23 01:14:00,30.4,7.6,30.19,WSW,247,0.0,7.6,38,0.00,,,0.00,WUHU21636XXSP,2013-01-23 08:14:00,
2013-01-23 01:15:00,30.4,7.5,32.42,WSW,247,0.0,7.6,38,0.00,,,0.00,WUHU21636XXSP,2013-01-23 08:15:00,
2013-01-23 01:18:00,30.4,7.5,30.19,WSW,247,0.0,7.6,38,0.00,,,0.00,WUHU21636XXSP,2013-01-23 08:18:00,
2013-01-23 01:19:00,30.4,7.5,30.19,WSW,247,0.0,1.1,38,0.00,,,0.00,WUHU21636XXSP,2013-01-23 08:19:00,
2013-01-23 01:20:00,30.4,7.5,30.19,WSW,247,0.0,1.1,38,0.00,,,0.00,WUHU21636XXSP,2013-01-23 08:20:00,
2013-01-23 01:23:00,30.4,7.5,30.19,WSW,247,0.0,0.0,38,0.00,,,0.00,WUHU21636XXSP,2013-01-23 08:23:00,
2013-01-23 01:24:00,30.4,7.5,30.20,WSW,247,0.0,0.0,38,0.00,,,0.00,WUHU21636XXSP,2013-01-23 08:24:00,
2013-01-23 01:25:00,30.4,7.5,30.20,WSW,247,0.0,0.0,38,0.00,,,0.00,WUHU21636XXSP,2013-01-23 08:25:00,
2013-01-23 01:28:00,30.2,7.5,30.19,WSW,247,0.0,0.0,38,0.00,,,0.00,WUHU21636XXSP,2013-01-23 08:28:00,
2013-01-23 01:29:00,30.2,7.5,30.19,WSW,247,0.0,0.0,38,0.00,,,0.00,WUHU21636XXSP,2013-01-23 08:29:00,
2013-01-23 01:30:00,30.2,7.5,30.19,WSW,247,0.0,0.0,38,0.00,,,0.00,WUHU21636XXSP,2013-01-23 08:30:00,
2013-01-23 01:33:00,30.0,7.3,30.20,WSW,247,0.0,0.0,38,0.00,,,0.00,WUHU21636XXSP,2013-01-23 08:33:00,
2013-01-23 01:34:00,30.0,7.3,30.20,WSW,247,0.0,0.0,38,0.00,,,0.00,WUHU21636XXSP,2013-01-23 08:34:00,
2013-01-23 01:35:00,30.0,7.3,30.20,WSW,247,0.0,0.0,38,0.00,,,0.00,WUHU21636XXSP,2013-01-23 08:35:00,
2013-01-23 01:38:00,30.0,7.3,30.20,WSW,247,0.0,0.0,38,0.00,,,0.00,WUHU21636XXSP,2013-01-23 08:38:00,
2013-01-23 01:39:00,30.0,7.3,30.20,WSW,247,0.0,0.0,38,0.00,,,0.00,WUHU21636XXSP,2013-01-23 08:39:00,
2013-01-23 01:40:00,30.0,7.3,30.20,WSW,247,0.0,0.0,38,0.00,,,0.00,WUHU21636XXSP,2013-01-23 08:40:00,
2013-01-23 01:43:00,29.8,7.2,30.20,WSW,247,0.0,0.0,38,0.00,,,0.00,WUHU21636XXSP,2013-01-23 08:43:00,
2013-01-23 01:44:00,29.8,7.2,30.20,WSW,247,0.0,0.0,38,0.00,,,0.00,WUHU21636XXSP,2013-01-23 08:44:00,
2013-01-23 01:45:00,29.8,7.2,30.20,WSW,247,0.0,0.0,38,0.00,,,0.00,WUHU21636XXSP,2013-01-23 08:45:00,
2013-01-23 01:48:00,29.8,7.2,30.20,WSW,247,0.0,0.0,38,0.00,,,0.00,WUHU21636XXSP,2013-01-23 08:48:00,
2013-01-23 01:49:00,29.8,7.2,30.20,WSW,247,0.0,0.0,38,0.00,,,0.00,WUHU21636XXSP,2013-01-23 08:49:00,
2013-01-23 01:50:00,29.8,7.2,30.20,WSW,247,0.0,0.0,38,0.00,,,0.00,WUHU21636XXSP,2013-01-23 08:50:00,
2013-01-23 01:54:00,29.8,7.2,30.20,WSW,247,0.0,0.0,38,0.00,,,0.00,WUHU21636XXSP,2013-01-23 08:54:00,
2013-01-23 01:55:00,29.7,7.0,30.20,WSW,247,0.0,0.0,38,0.00,,,0.00,WUHU21636XXSP,2013-01-23 08:55:00,
2013-01-23 01:59:00,29.5,7.3,30.20,WSW,247,0.0,0.0,39,0.00,,,0.00,WUHU21636XXSP,2013-01-23 08:59:00,
2013-01-23 02:00:00,29.5,7.3,30.20,WSW,247,0.0,0.0,39,0.00,,,0.00,WUHU21636XXSP,2013-01-23 09:00:00,
2013-01-23 02:04:00,29.3,7.3,30.20,WSW,247,1.0,2.4,39,0.00,,,0.00,WUHU21636XXSP,2013-01-23 09:04:00,
2013-01-23 02:05:00,29.1,7.2,30.20,WSW,247,0.0,2.4,39,0.00,,,0.00,WUHU21636XXSP,2013-01-23 09:05:00,
2013-01-23 02:09:00,29.1,7.2,30.20,WSW,247,0.0,2.4,39,0.00,,,0.00,WUHU21636XXSP,2013-01-23 09:09:00,
2013-01-23 02:10:00,29.1,7.2,30.20,WSW,247,0.0,2.4,39,0.00,,,0.00,WUHU21636XXSP,2013-01-23 09:10:00,
2013-01-23 02:14:00,28.9,7.0,30.19,WSW,247,0.0,0.0,39,0.00,,,0.00,WUHU21636XXSP,2013-01-23 09:14:00,
2013-01-23 02:15:00,28.9,7.0,30.19,WSW,247,0.0,0.0,39,0.00,,,0.00,WUHU21636XXSP,2013-01-23 09:15:00,
2013-01-23 02:16:00,28.9,7.0,30.19,WSW,247,0.0,0.0,39,0.00,,,0.00,WUHU21636XXSP,2013-01-23 09:16:00,
2013-01-23 02:19:00,28.9,7.0,30.19,NW,315,4.2,4.2,39,0.00,,,0.00,WUHU21636XXSP,2013-01-23 09:19:00,
2013-01-23 02:20:00,28.8,7.3,30.19,NW,315,3.4,4.2,40,0.00,,,0.00,WUHU21636XXSP,2013-01-23 09:20:00,
2013-01-23 02:21:00,28.8,7.3,30.19,NW,315,2.0,4.2,40,0.00,,,0.00,WUHU21636XXSP,2013-01-23 09:21:00,
2013-01-23 02:24:00,28.8,7.3,30.19,NW,315,0.0,4.2,40,0.00,,,0.00,WUHU21636XXSP,2013-01-23 09:24:00,
2013-01-23 02:25:00,28.8,7.3,30.19,NW,315,0.0,4.2,40,0.00,,,0.00,WUHU21636XXSP,2013-01-23 09:25:00,
2013-01-23 02:26:00,28.8,7.3,30.19,NW,315,0.0,4.2,40,0.00,,,0.00,WUHU21636XXSP,2013-01-23 09:26:00,
2013-01-23 02:29:00,28.9,7.5,30.19,NNW,337,2.6,4.2,40,0.00,,,0.00,WUHU21636XXSP,2013-01-23 09:29:00,
2013-01-23 02:30:00,28.9,7.5,30.19,NNW,337,2.6,2.6,40,0.00,,,0.00,WUHU21636XXSP,2013-01-23 09:30:00,
2013-01-23 02:31:00,28.9,7.5,30.19,NNW,337,2.4,2.6,39,0.00,,,0.00,WUHU21636XXSP,2013-01-23 09:31:00,
2013-01-23 02:35:00,29.1,7.2,30.19,NW,315,3.2,3.3,39,0.00,,,0.00,WUHU21636XXSP,2013-01-23 09:35:00,
2013-01-23 02:36:00,29.1,7.2,30.20,NW,315,1.7,3.3,39,0.00,,,0.00,WUHU21636XXSP,2013-01-23 09:36:00,
2013-01-23 02:40:00,29.1,7.2,30.19,NW,315,0.0,3.3,38,0.00,,,0.00,WUHU21636XXSP,2013-01-23 09:40:00,
2013-01-23 02:41:00,29.1,7.2,30.19,NW,315,0.0,3.3,38,0.00,,,0.00,WUHU21636XXSP,2013-01-23 09:41:00,
2013-01-23 02:45:00,29.3,6.6,30.19,NW,315,0.0,0.0,38,0.00,,,0.00,WUHU21636XXSP,2013-01-23 09:45:00,
2013-01-23 02:46:00,29.3,6.6,30.19,NW,315,0.0,0.0,38,0.00,,,0.00,WUHU21636XXSP,2013-01-23 09:46:00,
2013-01-23 02:50:00,29.3,6.6,30.19,NW,315,0.0,0.0,37,0.00,,,0.00,WUHU21636XXSP,2013-01-23 09:50:00,
2013-01-23 02:51:00,29.3,6.6,30.19,NW,315,0.0,0.0,37,0.00,,,0.00,WUHU21636XXSP,2013-01-23 09:51:00,
2013-01-23 02:52:00,29.3,6.6,30.19,NW,315,0.0,0.0,37,0.00,,,0.00,WUHU21636XXSP,2013-01-23 09:52:00,
2013-01-23 02:55:00,29.1,5.9,30.20,NW,315,0.0,0.0,37,0.00,,,0.00,WUHU21636XXSP,2013-01-23 09:55:00,
2013-01-23 02:56:00,29.1,5.9,30.20,NW,315,0.0,0.0,37,0.00,,,0.00,WUHU21636XXSP,2013-01-23 09:56:00,
2013-01-23 02:57:00,29.1,5.9,30.19,NW,315,0.0,0.0,37,0.00,,,0.00,WUHU21636XXSP,2013-01-23 09:57:00,
2013-01-23 02:58:00,29.1,5.9,30.19,NW,315,0.0,0.0,37,0.00,,,0.00,WUHU21636XXSP,2013-01-23 09:58:00,
2013-01-23 03:00:00,28.9,5.7,30.19,NW,315,0.0,0.0,37,0.00,,,0.00,WUHU21636XXSP,2013-01-23 10:00:00,
2013-01-23 03:01:00,28.9,5.7,30.19,NW,315,0.0,0.0,37,0.00,,,0.00,WUHU21636XXSP,2013-01-23 10:01:00,
2013-01-23 03:03:00,28.9,5.7,30.19,NW,315,0.0,0.0,37,0.00,,,0.00,WUHU21636XXSP,2013-01-23 10:03:00,
2013-01-23 03:05:00,28.9,5.7,30.19,NW,315,0.0,0.0,37,0.00,,,0.00,WUHU21636XXSP,2013-01-23 10:05:00,
2013-01-23 03:06:00,28.9,5.7,30.19,NW,315,0.0,0.0,37,0.00,,,0.00,WUHU21636XXSP,2013-01-23 10:06:00,
2013-01-23 03:08:00,28.9,5.7,30.19,NW,315,0.0,0.0,37,0.00,,,0.00,WUHU21636XXSP,2013-01-23 10:08:00,
2013-01-23 03:10:00,28.9,5.7,30.19,NW,315,0.0,0.0,37,0.00,,,0.00,WUHU21636XXSP,2013-01-23 10:10:00,
2013-01-23 03:12:00,28.8,5.5,30.19,NW,315,0.0,0.0,37,0.00,,,0.00,WUHU21636XXSP,2013-01-23 10:12:00,
2013-01-23 03:13:00,28.8,5.5,30.19,NW,315,0.0,0.0,37,0.00,,,0.00,WUHU21636XXSP,2013-01-23 10:13:00,
2013-01-23 03:15:00,28.8,5.5,30.19,NW,315,0.0,0.0,36,0.00,,,0.00,WUHU21636XXSP,2013-01-23 10:15:00,
2013-01-23 03:17:00,28.8,5.5,30.19,NW,315,0.0,0.0,36,0.00,,,0.00,WUHU21636XXSP,2013-01-23 10:17:00,
2013-01-23 03:18:00,28.6,4.6,30.19,NW,315,0.0,0.0,36,0.00,,,0.00,WUHU21636XXSP,2013-01-23 10:18:00,
2013-01-23 03:19:00,28.6,4.6,30.19,NW,315,0.0,0.0,36,0.00,,,0.00,WUHU21636XXSP,2013-01-23 10:19:00,
2013-01-23 03:20:00,28.6,4.6,30.19,NW,315,0.0,0.0,36,0.00,,,0.00,WUHU21636XXSP,2013-01-23 10:20:00,
2013-01-23 03:22:00,28.6,4.6,30.19,NW,315,0.0,0.0,36,0.00,,,0.00,WUHU21636XXSP,2013-01-23 10:22:00,
2013-01-23 03:23:00,28.4,4.6,30.19,NW,315,0.0,0.0,36,0.00,,,0.00,WUHU21636XXSP,2013-01-23 10:23:00,
2013-01-23 03:24:00,28.4,4.6,30.19,NW,315,0.0,0.0,36,0.00,,,0.00,WUHU21636XXSP,2013-01-23 10:24:00,
2013-01-23 03:25:00,28.4,4.6,30.19,NW,315,0.0,0.0,37,0.00,,,0.00,WUHU21636XXSP,2013-01-23 10:25:00,
2013-01-23 03:28:00,28.2,4.5,30.19,NW,315,0.0,0.0,36,0.00,,,0.00,WUHU21636XXSP,2013-01-23 10:28:00,
2013-01-23 03:29:00,28.2,4.5,30.18,NW,315,0.0,0.0,36,0.00,,,0.00,WUHU21636XXSP,2013-01-23 10:29:00,
2013-01-23 03:30:00,28.2,4.5,30.19,NW,315,0.0,0.0,36,0.00,,,0.00,WUHU21636XXSP,2013-01-23 10:30:00,
2013-01-23 03:33:00,28.0,4.3,30.19,NW,315,0.0,0.0,36,0.00,,,0.00,WUHU21636XXSP,2013-01-23 10:33:00,
2013-01-23 03:34:00,28.0,4.3,30.19,NW,315,0.0,0.0,36,0.00,,,0.00,WUHU21636XXSP,2013-01-23 10:34:00,
2013-01-23 03:35:00,28.0,4.3,30.19,NW,315,0.0,0.0,36,0.00,,,0.00,WUHU21636XXSP,2013-01-23 10:35:00,
2013-01-23 03:38:00,28.0,4.3,30.18,NW,315,0.0,0.0,35,0.00,,,0.00,WUHU21636XXSP,2013-01-23 10:38:00,
2013-01-23 03:39:00,28.0,4.3,30.18,NW,315,0.0,0.0,35,0.00,,,0.00,WUHU21636XXSP,2013-01-23 10:39:00,
2013-01-23 03:40:00,28.0,4.3,30.19,NW,315,0.0,0.0,35,0.00,,,0.00,WUHU21636XXSP,2013-01-23 10:40:00,
2013-01-23 03:43:00,28.0,4.3,30.18,NW,315,0.0,0.0,34,0.00,,,0.00,WUHU21636XXSP,2013-01-23 10:43:00,
2013-01-23 03:44:00,28.2,3.2,30.18,NW,315,0.0,0.0,34,0.00,,,0.00,WUHU21636XXSP,2013-01-23 10:44:00,
2013-01-23 03:45:00,28.2,3.2,30.18,NW,315,0.0,0.0,34,0.00,,,0.00,WUHU21636XXSP,2013-01-23 10:45:00,
2013-01-23 03:48:00,28.0,3.0,30.18,NW,315,0.0,0.0,34,0.00,,,0.00,WUHU21636XXSP,2013-01-23 10:48:00,
2013-01-23 03:49:00,28.0,3.0,30.18,NW,315,0.0,0.0,34,0.00,,,0.00,WUHU21636XXSP,2013-01-23 10:49:00,
2013-01-23 03:50:00,28.2,3.2,30.18,NW,315,0.0,0.0,34,0.00,,,0.00,WUHU21636XXSP,2013-01-23 10:50:00,
2013-01-23 03:52:00,28.2,3.2,30.18,NW,315,0.0,0.0,34,0.00,,,0.00,WUHU21636XXSP,2013-01-23 10:52:00,
2013-01-23 03:53:00,28.2,3.2,30.18,NW,315,0.0,0.0,34,0.00,,,0.00,WUHU21636XXSP,2013-01-23 10:53:00,
2013-01-23 03:54:00,28.2,3.2,30.18,NW,315,0.0,0.0,34,0.00,,,0.00,WUHU21636XXSP,2013-01-23 10:54:00,
2013-01-23 03:55:00,28.2,3.2,30.18,NW,315,0.0,0.0,33,0.00,,,0.00,WUHU21636XXSP,2013-01-23 10:55:00,
2013-01-23 03:57:00,28.2,3.2,30.18,NW,315,0.0,0.0,33,0.00,,,0.00,WUHU21636XXSP,2013-01-23 10:57:00,
2013-01-23 03:58:00,28.2,3.2,30.18,NW,315,0.0,0.0,33,0.00,,,0.00,WUHU21636XXSP,2013-01-23 10:58:00,
2013-01-23 03:59:00,28.2,3.2,30.18,NW,315,0.0,0.0,33,0.00,,,0.00,WUHU21636XXSP,2013-01-23 10:59:00,
2013-01-23 04:00:00,28.2,3.2,30.18,NW,315,0.0,0.0,33,0.00,,,0.00,WUHU21636XXSP,2013-01-23 11:00:00,
2013-01-23 04:02:00,28.2,3.2,30.18,NW,315,0.0,0.0,33,0.00,,,0.00,WUHU21636XXSP,2013-01-23 11:02:00,
2013-01-23 04:03:00,28.2,3.2,30.18,NW,315,0.0,0.0,33,0.00,,,0.00,WUHU21636XXSP,2013-01-23 11:03:00,
2013-01-23 04:04:00,28.2,3.2,30.18,NW,315,0.0,0.0,33,0.00,,,0.00,WUHU21636XXSP,2013-01-23 11:04:00,
2013-01-23 04:06:00,28.2,3.2,30.18,NW,315,0.0,0.0,33,0.00,,,0.00,WUHU21636XXSP,2013-01-23 11:06:00,
2013-01-23 04:08:00,28.2,3.2,30.18,NW,315,0.0,0.0,33,0.00,,,0.00,WUHU21636XXSP,2013-01-23 11:08:00,
2013-01-23 04:09:00,28.2,3.2,30.18,NW,315,0.0,0.0,33,0.00,,,0.00,WUHU21636XXSP,2013-01-23 11:09:00,
2013-01-23 04:10:00,28.2,3.2,30.18,NW,315,0.0,0.0,33,0.00,,,0.00,WUHU21636XXSP,2013-01-23 11:10:00,
2013-01-23 04:11:00,28.2,3.2,30.18,NW,315,0.0,0.0,33,0.00,,,0.00,WUHU21636XXSP,2013-01-23 11:11:00,
2013-01-23 04:14:00,29.3,2.3,30.18,NW,315,0.0,0.0,31,0.00,,,0.00,WUHU21636XXSP,2013-01-23 11:14:00,
2013-01-23 04:16:00,29.3,2.3,30.18,NW,315,0.0,0.0,31,0.00,,,0.00,WUHU21636XXSP,2013-01-23 11:16:00,
2013-01-23 04:17:00,29.3,2.3,30.18,NW,315,0.0,0.0,31,0.00,,,0.00,WUHU21636XXSP,2013-01-23 11:17:00,
2013-01-23 04:19:00,29.3,2.3,30.18,NW,315,0.0,0.0,31,0.00,,,0.00,WUHU21636XXSP,2013-01-23 11:19:00,
2013-01-23 04:20:00,29.3,2.3,30.18,NW,315,0.0,0.0,31,0.00,,,0.00,WUHU21636XXSP,2013-01-23 11:20:00,
2013-01-23 04:21:00,29.3,2.3,30.18,NW,315,0.0,0.0,30,0.00,,,0.00,WUHU21636XXSP,2013-01-23 11:21:00,
2013-01-23 04:26:00,29.5,1.8,30.18,NW,315,3.3,3.3,29,0.00,,,0.00,WUHU21636XXSP,2013-01-23 11:26:00,
2013-01-23 04:27:00,29.5,1.8,30.18,NW,315,3.3,3.3,29,0.00,,,0.00,WUHU21636XXSP,2013-01-23 11:27:00,
2013-01-23 04:31:00,30.0,0.5,30.18,NW,315,0.0,3.3,28,0.00,,,0.00,WUHU21636XXSP,2013-01-23 11:31:00,
2013-01-23 04:32:00,30.4,0.0,30.18,NW,315,0.0,3.3,27,0.00,,,0.00,WUHU21636XXSP,2013-01-23 11:32:00,
2013-01-23 04:36:00,30.7,-0.6,30.18,WNW,292,3.5,7.3,26,0.00,,,0.00,WUHU21636XXSP,2013-01-23 11:36:00,
2013-01-23 04:37:00,30.7,-0.6,30.18,WNW,292,3.5,7.3,26,0.00,,,0.00,WUHU21636XXSP,2013-01-23 11:37:00,
2013-01-23 04:38:00,31.5,-1.7,30.17,NW,315,4.2,7.3,24,0.00,,,0.00,WUHU21636XXSP,2013-01-23 11:38:00,
2013-01-23 04:41:00,32.2,-1.8,30.18,WNW,301,2.2,7.3,23,0.00,,,0.00,WUHU21636XXSP,2013-01-23 11:41:00,
2013-01-23 04:42:00,32.2,-1.8,30.18,West,274,1.2,7.3,23,0.00,,,0.00,WUHU21636XXSP,2013-01-23 11:42:00,
2013-01-23 04:43:00,32.7,-1.5,30.18,West,270,0.7,7.3,23,0.00,,,0.00,WUHU21636XXSP,2013-01-23 11:43:00,
2013-01-23 04:47:00,34.0,-1.3,30.18,NW,315,3.1,4.2,22,0.00,,,0.00,WUHU21636XXSP,2013-01-23 11:47:00,
2013-01-23 04:48:00,34.0,-1.3,30.18,NW,315,1.3,4.2,22,0.00,,,0.00,WUHU21636XXSP,2013-01-23 11:48:00,
2013-01-23 04:52:00,34.3,-0.9,30.18,NNW,337,0.8,3.8,22,0.00,,,0.00,WUHU21636XXSP,2013-01-23 11:52:00,
2013-01-23 04:53:00,34.3,-0.9,30.18,NNW,337,0.4,3.8,22,0.00,,,0.00,WUHU21636XXSP,2013-01-23 11:53:00,
2013-01-23 04:58:00,34.0,-0.4,30.18,NNW,337,0.0,2.6,23,0.00,,,0.00,WUHU21636XXSP,2013-01-23 11:58:00,
2013-01-23 05:03:00,33.1,-0.2,30.18,NNW,337,0.0,0.0,24,0.00,,,0.00,WUHU21636XXSP,2013-01-23 12:03:00,
2013-01-23 05:04:00,33.1,-0.2,30.18,NNW,337,0.0,0.0,24,0.00,,,0.00,WUHU21636XXSP,2013-01-23 12:04:00,
2013-01-23 05:08:00,32.9,-1.3,30.18,NNW,337,1.3,1.3,23,0.00,,,0.00,WUHU21636XXSP,2013-01-23 12:08:00,
2013-01-23 05:09:00,32.7,-1.5,30.18,NNW,337,1.3,1.3,23,0.00,,,0.00,WUHU21636XXSP,2013-01-23 12:09:00,
2013-01-23 05:13:00,32.5,-1.7,30.18,NNE,22,4.6,4.6,23,0.00,,,0.00,WUHU21636XXSP,2013-01-23 12:13:00,
2013-01-23 05:14:00,32.5,-1.7,30.18,NNE,22,4.6,4.6,23,0.00,,,0.00,WUHU21636XXSP,2013-01-23 12:14:00,
2013-01-23 05:18:00,32.5,-1.7,30.18,North,0,5.1,8.2,23,0.00,,,0.00,WUHU21636XXSP,2013-01-23 12:18:00,
2013-01-23 05:19:00,32.5,-1.7,30.18,NNE,12,5.0,8.2,23,0.00,,,0.00,WUHU21636XXSP,2013-01-23 12:19:00,
2013-01-23 05:24:00,32.7,-2.4,30.19,North,0,6.9,9.3,22,0.00,,,0.00,WUHU21636XXSP,2013-01-23 12:24:00,
2013-01-23 05:29:00,32.9,-3.1,30.19,NNE,22,4.9,9.3,21,0.00,,,0.00,WUHU21636XXSP,2013-01-23 12:29:00,
2013-01-23 05:34:00,33.1,-2.9,30.18,North,0,3.1,4.9,22,0.00,,,0.00,WUHU21636XXSP,2013-01-23 12:34:00,
2013-01-23 05:35:00,33.1,-2.9,30.18,NNE,22,3.1,4.9,22,0.00,,,0.00,WUHU21636XXSP,2013-01-23 12:35:00,
2013-01-23 05:39:00,33.1,-2.0,30.18,North,0,4.0,4.9,22,0.00,,,0.00,WUHU21636XXSP,2013-01-23 12:39:00,
2013-01-23 05:40:00,33.1,-2.0,30.18,North,0,4.0,4.0,22,0.00,,,0.00,WUHU21636XXSP,2013-01-23 12:40:00,
2013-01-23 05:44:00,33.4,-1.7,30.19,North,7,5.0,7.1,22,0.00,,,0.00,WUHU21636XXSP,2013-01-23 12:44:00,
2013-01-23 05:45:00,33.4,-1.7,30.19,North,7,5.0,7.1,22,0.00,,,0.00,WUHU21636XXSP,2013-01-23 12:45:00,
2013-01-23 05:50:00,33.4,-1.7,30.19,NNE,22,3.2,7.1,22,0.00,,,0.00,WUHU21636XXSP,2013-01-23 12:50:00,
2013-01-23 05:55:00,33.4,-1.7,30.19,North,0,3.1,6.2,22,0.00,,,0.00,WUHU21636XXSP,2013-01-23 12:55:00,
2013-01-23 06:00:00,33.3,-1.8,30.19,NNE,22,4.4,5.1,22,0.00,,,0.00,WUHU21636XXSP,2013-01-23 13:00:00,
2013-01-23 06:01:00,33.3,-1.8,30.19,NNE,22,4.4,5.1,22,0.00,,,0.00,WUHU21636XXSP,2013-01-23 13:01:00,
2013-01-23 06:02:00,33.4,-1.7,30.19,NNE,22,3.5,5.1,22,0.00,,,0.00,WUHU21636XXSP,2013-01-23 13:02:00,
2013-01-23 06:05:00,33.1,-2.0,30.19,NNE,22,5.1,5.1,22,0.00,,,0.00,WUHU21636XXSP,2013-01-23 13:05:00,
2013-01-23 06:06:00,33.1,-2.0,30.19,NNE,28,4.5,6.7,22,0.00,,,0.00,WUHU21636XXSP,2013-01-23 13:06:00,
2013-01-23 06:07:00,33.1,-2.0,30.19,NE,36,4.0,6.7,22,0.00,,,0.00,WUHU21636XXSP,2013-01-23 13:07:00,
2013-01-23 06:10:00,33.3,-1.8,30.19,NNE,22,5.0,6.7,22,0.00,,,0.00,WUHU21636XXSP,2013-01-23 13:10:00,
2013-01-23 06:11:00,33.3,-1.8,30.19,NNE,22,4.9,6.7,22,0.00,,,0.00,WUHU21636XXSP,2013-01-23 13:11:00,
2013-01-23 06:12:00,33.3,-1.8,30.19,NNE,22,4.6,6.7,22,0.00,,,0.00,WUHU21636XXSP,2013-01-23 13:12:00,
2013-01-23 06:15:00,33.4,-1.7,30.19,NNE,22,2.2,5.1,22,0.00,,,0.00,WUHU21636XXSP,2013-01-23 13:15:00,
2013-01-23 06:16:00,33.4,-1.7,30.19,NNE,22,2.1,5.1,22,0.00,,,0.00,WUHU21636XXSP,2013-01-23 13:16:00,
2013-01-23 06:17:00,33.4,-1.7,30.19,NNE,22,3.3,5.1,22,0.00,,,0.00,WUHU21636XXSP,2013-01-23 13:17:00,
2013-01-23 06:21:00,33.1,-2.0,30.19,NNE,22,1.3,4.6,22,0.00,,,0.00,WUHU21636XXSP,2013-01-23 13:21:00,
2013-01-23 06:22:00,33.1,-2.0,30.19,NNE,22,0.6,4.6,22,0.00,,,0.00,WUHU21636XXSP,2013-01-23 13:22:00,
2013-01-23 06:26:00,33.1,-2.0,30.19,NNE,22,0.8,3.3,23,0.00,,,0.00,WUHU21636XXSP,2013-01-23 13:26:00,
2013-01-23 06:27:00,33.1,-2.0,30.19,NNE,22,0.8,3.3,23,0.00,,,0.00,WUHU21636XXSP,2013-01-23 13:27:00,
2013-01-23 06:31:00,33.1,-2.0,30.19,NNE,22,2.4,2.4,23,0.00,,,0.00,WUHU21636XXSP,2013-01-23 13:31:00,
2013-01-23 06:32:00,32.9,-1.3,30.19,NNE,22,2.6,2.6,23,0.00,,,0.00,WUHU21636XXSP,2013-01-23 13:32:00,
2013-01-23 06:33:00,32.9,-1.3,30.19,NNE,22,2.6,2.6,23,0.00,,,0.00,WUHU21636XXSP,2013-01-23 13:33:00,
2013-01-23 06:36:00,32.7,-1.5,30.19,NNE,22,4.6,4.6,23,0.00,,,0.00,WUHU21636XXSP,2013-01-23 13:36:00,
2013-01-23 06:37:00,32.7,-1.5,30.19,NNE,22,4.6,4.6,23,0.00,,,0.00,WUHU21636XXSP,2013-01-23 13:37:00,
2013-01-23 06:38:00,32.7,-1.5,30.19,NNE,22,4.6,4.6,23,0.00,,,0.00,WUHU21636XXSP,2013-01-23 13:38:00,
2013-01-23 06:41:00,32.5,-1.7,30.19,NNE,22,4.2,4.6,23,0.00,,,0.00,WUHU21636XXSP,2013-01-23 13:41:00,
2013-01-23 06:42:00,32.5,-1.7,30.19,NNE,22,4.2,4.6,23,0.00,,,0.00,WUHU21636XXSP,2013-01-23 13:42:00,
2013-01-23 06:43:00,32.5,-1.7,30.19,NNE,22,3.9,4.6,23,0.00,,,0.00,WUHU21636XXSP,2013-01-23 13:43:00,
2013-01-23 06:46:00,32.5,-1.7,30.19,NNE,22,1.1,4.6,23,0.00,,,0.00,WUHU21636XXSP,2013-01-23 13:46:00,
2013-01-23 06:47:00,32.5,-1.7,30.19,NNE,22,0.6,4.6,23,0.00,,,0.00,WUHU21636XXSP,2013-01-23 13:47:00,
2013-01-23 06:48:00,32.5,-1.7,30.19,NNE,22,0.5,4.6,23,0.00,,,0.00,WUHU21636XXSP,2013-01-23 13:48:00,
2013-01-23 06:51:00,32.4,-0.9,30.19,NNE,22,0.0,4.2,24,0.00,,,0.00,WUHU21636XXSP,2013-01-23 13:51:00,
2013-01-23 06:53:00,32.4,-0.9,30.19,NNE,22,0.0,3.3,24,0.00,,,0.00,WUHU21636XXSP,2013-01-23 13:53:00,
2013-01-23 06:56:00,32.2,-0.9,30.19,NNE,22,3.5,3.5,24,0.00,,,0.00,WUHU21636XXSP,2013-01-23 13:56:00,
2013-01-23 06:58:00,32.2,-0.9,30.19,NNE,22,2.9,3.5,24,0.00,,,0.00,WUHU21636XXSP,2013-01-23 13:58:00,
2013-01-23 06:59:00,32.2,-0.9,30.19,NNE,22,2.2,3.5,24,0.00,,,0.00,WUHU21636XXSP,2013-01-23 13:59:00,
2013-01-23 07:02:00,32.2,-0.9,30.18,NNE,22,2.4,3.5,24,0.00,,,0.00,WUHU21636XXSP,2013-01-23 14:02:00,
2013-01-23 07:03:00,32.2,-0.9,30.18,NNE,22,2.4,3.5,24,0.00,,,0.00,WUHU21636XXSP,2013-01-23 14:03:00,
2013-01-23 07:04:00,32.2,-0.9,30.18,NNE,22,2.4,3.5,24,0.00,,,0.00,WUHU21636XXSP,2013-01-23 14:04:00,
2013-01-23 07:07:00,31.8,-0.4,30.18,NNE,22,1.3,3.5,25,0.00,,,0.00,WUHU21636XXSP,2013-01-23 14:07:00,
2013-01-23 07:08:00,31.8,-0.4,30.18,NNE,22,0.0,2.4,25,0.00,,,0.00,WUHU21636XXSP,2013-01-23 14:08:00,
2013-01-23 07:09:00,31.8,-0.4,30.18,NNE,22,0.0,2.4,25,0.00,,,0.00,WUHU21636XXSP,2013-01-23 14:09:00,
2013-01-23 07:13:00,31.8,-0.4,30.18,NNE,22,2.2,2.4,25,0.00,,,0.00,WUHU21636XXSP,2013-01-23 14:13:00,
2013-01-23 07:14:00,31.8,-0.4,30.18,NNE,22,2.2,2.4,25,0.00,,,0.00,WUHU21636XXSP,2013-01-23 14:14:00,
2013-01-23 07:18:00,31.6,-0.6,30.18,NNE,22,2.6,2.6,25,0.00,,,0.00,WUHU21636XXSP,2013-01-23 14:18:00,
2013-01-23 07:19:00,31.6,-0.6,30.18,NNE,22,2.5,2.6,25,0.00,,,0.00,WUHU21636XXSP,2013-01-23 14:19:00,
2013-01-23 07:23:00,31.6,-0.6,30.18,NNE,22,2.0,2.6,25,0.00,,,0.00,WUHU21636XXSP,2013-01-23 14:23:00,
2013-01-23 07:24:00,31.6,-0.6,30.18,NNE,22,1.6,2.6,25,0.00,,,0.00,WUHU21636XXSP,2013-01-23 14:24:00,
2013-01-23 07:25:00,31.6,-0.6,30.18,NNE,22,0.5,2.6,25,0.00,,,0.00,WUHU21636XXSP,2013-01-23 14:25:00,
2013-01-23 07:28:00,31.6,-0.6,30.19,North,0,3.3,3.3,25,0.00,,,0.00,WUHU21636XXSP,2013-01-23 14:28:00,
2013-01-23 07:29:00,31.6,-0.6,30.19,North,0,3.3,3.3,25,0.00,,,0.00,WUHU21636XXSP,2013-01-23 14:29:00,
2013-01-23 07:30:00,31.8,-0.4,30.19,NNE,22,4.0,4.0,25,0.00,,,0.00,WUHU21636XXSP,2013-01-23 14:30:00,
2013-01-23 07:33:00,32.0,-0.2,30.18,NNE,22,3.4,4.0,25,0.00,,,0.00,WUHU21636XXSP,2013-01-23 14:33:00,
2013-01-23 07:34:00,32.0,-0.2,30.18,NNE,22,3.3,4.0,25,0.00,,,0.00,WUHU21636XXSP,2013-01-23 14:34:00,
2013-01-23 07:35:00,32.0,-0.2,30.18,NNE,22,2.7,4.0,25,0.00,,,0.00,WUHU21636XXSP,2013-01-23 14:35:00,
2013-01-23 07:39:00,32.2,-0.2,30.18,North,0,5.1,5.1,25,0.00,,,0.00,WUHU21636XXSP,2013-01-23 14:39:00,
2013-01-23 07:40:00,32.2,-0.2,30.18,North,0,5.1,5.1,25,0.00,,,0.00,WUHU21636XXSP,2013-01-23 14:40:00,
2013-01-23 07:44:00,32.4,0.0,30.18,NNE,22,4.0,5.1,25,0.00,,,0.00,WUHU21636XXSP,2013-01-23 14:44:00,
2013-01-23 07:45:00,32.4,0.0,30.18,NNE,22,4.0,5.1,25,0.00,,,0.00,WUHU21636XXSP,2013-01-23 14:45:00,
2013-01-23 07:49:00,32.7,0.3,30.18,North,0,4.2,5.1,25,0.00,,,0.00,WUHU21636XXSP,2013-01-23 14:49:00,
2013-01-23 07:50:00,32.7,0.3,30.18,North,7,3.7,5.1,25,0.00,,,0.00,WUHU21636XXSP,2013-01-23 14:50:00,
2013-01-23 07:54:00,33.1,0.7,30.18,NNE,22,2.4,4.2,25,0.00,,,0.00,WUHU21636XXSP,2013-01-23 14:54:00,
2013-01-23 07:55:00,33.1,0.7,30.18,NNE,22,2.4,4.2,25,0.00,,,0.00,WUHU21636XXSP,2013-01-23 14:55:00,
2013-01-23 07:59:00,33.3,0.7,30.18,NNE,22,1.1,4.2,25,0.00,,,0.00,WUHU21636XXSP,2013-01-23 14:59:00,
2013-01-23 08:00:00,33.4,0.9,30.18,NW,315,1.7,4.0,25,0.00,,,0.00,WUHU21636XXSP,2013-01-23 15:00:00,
2013-01-23 08:01:00,33.4,0.9,30.18,NW,315,1.7,4.0,25,0.00,,,0.00,WUHU21636XXSP,2013-01-23 15:01:00,
2013-01-23 08:04:00,33.6,1.0,30.18,NNE,22,4.4,5.1,25,0.00,,,0.00,WUHU21636XXSP,2013-01-23 15:04:00,
2013-01-23 08:05:00,33.6,1.0,30.18,NNE,22,1.6,5.1,25,0.00,,,0.00,WUHU21636XXSP,2013-01-23 15:05:00,
2013-01-23 08:06:00,33.6,1.0,30.18,NNE,22,0.5,5.1,25,0.00,,,0.00,WUHU21636XXSP,2013-01-23 15:06:00,
2013-01-23 08:09:00,33.6,1.0,30.18,NE,45,1.2,5.1,25,0.00,,,0.00,WUHU21636XXSP,2013-01-23 15:09:00,
2013-01-23 08:10:00,33.6,1.0,30.18,NE,45,0.0,5.1,25,0.00,,,0.00,WUHU21636XXSP,2013-01-23 15:10:00,
2013-01-23 08:11:00,34.0,1.4,30.18,NE,45,1.3,5.1,25,0.00,,,0.00,WUHU21636XXSP,2013-01-23 15:11:00,
2013-01-23 08:14:00,34.0,1.4,30.18,NE,45,0.0,2.9,25,0.00,,,0.00,WUHU21636XXSP,2013-01-23 15:14:00,
2013-01-23 08:15:00,34.0,1.4,30.18,NE,45,0.0,2.9,25,0.00,,,0.00,WUHU21636XXSP,2013-01-23 15:15:00,
2013-01-23 08:16:00,34.0,1.4,30.18,NE,45,0.0,2.9,25,0.00,,,0.00,WUHU21636XXSP,2013-01-23 15:16:00,
2013-01-23 08:20:00,34.3,1.8,30.18,NNE,22,3.1,3.1,25,0.00,,,0.00,WUHU21636XXSP,2013-01-23 15:20:00,
2013-01-23 08:21:00,34.3,1.8,30.18,NNE,22,3.1,3.1,25,0.00,,,0.00,WUHU21636XXSP,2013-01-23 15:21:00,
2013-01-23 08:25:00,34.5,1.8,30.18,NNE,22,4.0,4.0,25,0.00,,,0.00,WUHU21636XXSP,2013-01-23 15:25:00,
2013-01-23 08:26:00,34.5,1.8,30.18,NNE,22,4.4,4.4,25,0.00,,,0.00,WUHU21636XXSP,2013-01-23 15:26:00,
2013-01-23 08:30:00,34.9,2.1,30.18,NNE,22,0.0,4.4,25,0.00,,,0.00,WUHU21636XXSP,2013-01-23 15:30:00,
2013-01-23 08:31:00,34.9,2.1,30.18,NNE,22,0.0,4.4,25,0.00,,,0.00,WUHU21636XXSP,2013-01-23 15:31:00,
2013-01-23 08:32:00,34.9,2.1,30.18,NNE,22,0.0,4.4,25,0.00,,,0.00,WUHU21636XXSP,2013-01-23 15:32:00,
2013-01-23 08:35:00,35.2,2.5,30.19,North,351,2.2,4.4,25,0.00,,,0.00,WUHU21636XXSP,2013-01-23 15:35:00,
2013-01-23 08:36:00,35.2,2.5,30.19,NNW,341,1.7,4.4,25,0.00,,,0.00,WUHU21636XXSP,2013-01-23 15:36:00,
2013-01-23 08:37:00,35.2,2.5,30.19,NNW,337,3.1,4.4,25,0.00,,,0.00,WUHU21636XXSP,2013-01-23 15:37:00,
2013-01-23 08:40:00,35.4,2.7,30.19,NNW,337,3.5,3.5,25,0.00,,,0.00,WUHU21636XXSP,2013-01-23 15:40:00,
2013-01-23 08:41:00,35.8,2.8,30.19,NNW,337,5.5,5.5,25,0.00,,,0.00,WUHU21636XXSP,2013-01-23 15:41:00,
2013-01-23 08:42:00,35.8,2.8,30.19,NNW,337,5.5,5.5,25,0.00,,,0.00,WUHU21636XXSP,2013-01-23 15:42:00,
2013-01-23 08:45:00,36.1,3.2,30.19,NNW,337,3.8,5.5,25,0.00,,,0.00,WUHU21636XXSP,2013-01-23 15:45:00,
2013-01-23 08:46:00,36.1,3.2,30.19,NNW,337,3.8,5.5,25,0.00,,,0.00,WUHU21636XXSP,2013-01-23 15:46:00,
2013-01-23 08:47:00,36.3,3.4,30.19,North,0,4.6,5.5,25,0.00,,,0.00,WUHU21636XXSP,2013-01-23 15:47:00,
2013-01-23 08:50:00,36.7,3.7,30.19,NNE,15,3.8,5.5,25,0.00,,,0.00,WUHU21636XXSP,2013-01-23 15:50:00,
2013-01-23 08:51:00,36.7,3.7,30.19,NNE,22,3.5,5.5,25,0.00,,,0.00,WUHU21636XXSP,2013-01-23 15:51:00,
2013-01-23 08:52:00,37.2,3.2,30.19,NNW,337,3.8,5.5,24,0.00,,,0.00,WUHU21636XXSP,2013-01-23 15:52:00,
2013-01-23 08:56:00,38.1,3.2,30.18,NNW,343,5.5,8.2,23,0.00,,,0.00,WUHU21636XXSP,2013-01-23 15:56:00,
2013-01-23 08:58:00,38.7,3.6,30.19,NNW,327,3.9,9.3,23,0.00,,,0.00,WUHU21636XXSP,2013-01-23 15:58:00,
2013-01-23 09:01:00,39.0,3.9,30.19,NNW,337,4.0,9.3,23,0.00,,,0.00,WUHU21636XXSP,2013-01-23 16:01:00,
2013-01-23 09:03:00,39.7,4.5,30.19,NNW,337,4.8,9.3,23,0.00,,,0.00,WUHU21636XXSP,2013-01-23 16:03:00,
2013-01-23 09:06:00,39.7,3.6,30.19,NNW,337,3.8,9.3,22,0.00,,,0.00,WUHU21636XXSP,2013-01-23 16:06:00,
2013-01-23 09:08:00,40.3,5.0,30.20,North,352,5.0,7.6,23,0.00,,,0.00,WUHU21636XXSP,2013-01-23 16:08:00,
2013-01-23 09:11:00,40.6,4.5,30.20,NNW,337,4.0,7.6,22,0.00,,,0.00,WUHU21636XXSP,2013-01-23 16:11:00,
2013-01-23 09:12:00,40.8,4.6,30.20,NNW,337,3.9,7.6,22,0.00,,,0.00,WUHU21636XXSP,2013-01-23 16:12:00,
2013-01-23 09:13:00,40.8,4.6,30.20,NNW,337,3.8,6.4,22,0.00,,,0.00,WUHU21636XXSP,2013-01-23 16:13:00,
2013-01-23 09:16:00,41.5,5.2,30.20,NW,315,8.7,12.3,22,0.00,,,0.00,WUHU21636XXSP,2013-01-23 16:16:00,
2013-01-23 09:17:00,41.5,5.2,30.20,NW,322,8.6,12.3,22,0.00,,,0.00,WUHU21636XXSP,2013-01-23 16:17:00,
2013-01-23 09:18:00,41.7,5.4,30.20,NW,315,8.0,12.3,22,0.00,,,0.00,WUHU21636XXSP,2013-01-23 16:18:00,
2013-01-23 09:21:00,42.4,5.0,30.20,NW,315,9.3,13.4,21,0.00,,,0.00,WUHU21636XXSP,2013-01-23 16:21:00,
2013-01-23 09:22:00,42.4,5.0,30.20,NNW,337,9.1,13.4,21,0.00,,,0.00,WUHU21636XXSP,2013-01-23 16:22:00,
2013-01-23 09:23:00,43.2,5.5,30.20,NNW,337,6.4,13.4,21,0.00,,,0.00,WUHU21636XXSP,2013-01-23 16:23:00,
2013-01-23 09:26:00,43.5,5.0,30.20,NNW,337,7.5,13.4,20,0.00,,,0.00,WUHU21636XXSP,2013-01-23 16:26:00,
2013-01-23 09:27:00,43.5,5.0,30.20,NNW,337,7.1,13.4,20,0.00,,,0.00,WUHU21636XXSP,2013-01-23 16:27:00,
2013-01-23 09:29:00,43.9,5.4,30.20,NNW,337,8.9,13.4,20,0.00,,,0.00,WUHU21636XXSP,2013-01-23 16:29:00,
2013-01-23 09:31:00,44.4,4.6,30.20,NNW,331,8.3,11.8,19,0.00,,,0.00,WUHU21636XXSP,2013-01-23 16:31:00,
2013-01-23 09:32:00,44.4,4.6,30.20,NNW,337,8.2,11.8,19,0.00,,,0.00,WUHU21636XXSP,2013-01-23 16:32:00,
2013-01-23 09:34:00,45.0,5.1,30.20,NNW,337,9.3,12.0,19,0.00,,,0.00,WUHU21636XXSP,2013-01-23 16:34:00,
2013-01-23 09:36:00,45.5,5.6,30.20,NNW,337,9.8,14.7,19,0.00,,,0.00,WUHU21636XXSP,2013-01-23 16:36:00,
2013-01-23 09:37:00,45.7,5.7,30.20,NNW,337,10.9,14.7,19,0.00,,,0.00,WUHU21636XXSP,2013-01-23 16:37:00,
2013-01-23 09:39:00,46.0,4.3,30.20,NW,315,12.3,15.8,18,0.00,,,0.00,WUHU21636XXSP,2013-01-23 16:39:00,
2013-01-23 09:41:00,46.6,3.2,30.20,NW,322,11.9,15.8,17,0.00,,,0.00,WUHU21636XXSP,2013-01-23 16:41:00,
2013-01-23 09:42:00,46.8,3.4,30.20,NW,322,12.2,15.8,17,0.00,,,0.00,WUHU21636XXSP,2013-01-23 16:42:00,
2013-01-23 09:44:00,47.3,3.7,30.20,NW,326,10.3,15.8,17,0.00,,,0.00,WUHU21636XXSP,2013-01-23 16:44:00,
2013-01-23 09:46:00,47.5,3.5,30.20,NW,317,11.9,17.6,16,0.00,,,0.00,WUHU21636XXSP,2013-01-23 16:46:00,
2013-01-23 09:47:00,47.8,2.7,30.20,NW,320,11.9,17.6,16,0.00,,,0.00,WUHU21636XXSP,2013-01-23 16:47:00,
2013-01-23 09:48:00,47.8,2.7,30.20,NW,324,11.6,17.6,16,0.00,,,0.00,WUHU21636XXSP,2013-01-23 16:48:00,
2013-01-23 09:49:00,48.0,2.8,30.20,NNW,337,13.1,18.1,16,0.00,,,0.00,WUHU21636XXSP,2013-01-23 16:49:00,
2013-01-23 09:51:00,48.7,3.4,30.21,NW,315,12.7,18.1,16,0.00,,,0.00,WUHU21636XXSP,2013-01-23 16:51:00,
2013-01-23 09:52:00,49.1,3.7,30.21,NNW,331,11.0,18.1,16,0.00,,,0.00,WUHU21636XXSP,2013-01-23 16:52:00,
2013-01-23 09:53:00,49.1,3.7,30.21,NNW,337,11.1,18.1,16,0.00,,,0.00,WUHU21636XXSP,2013-01-23 16:53:00,
2013-01-23 09:54:00,49.6,4.1,30.21,NNW,337,10.0,18.1,16,0.00,,,0.00,WUHU21636XXSP,2013-01-23 16:54:00,
2013-01-23 09:56:00,49.8,4.3,30.21,NNW,337,10.7,18.1,16,0.00,,,0.00,WUHU21636XXSP,2013-01-23 16:56:00,
2013-01-23 09:57:00,50.4,3.2,30.21,NNW,330,9.7,18.1,15,0.00,,,0.00,WUHU21636XXSP,2013-01-23 16:57:00,
2013-01-23 09:58:00,50.4,3.2,30.20,NNW,328,9.3,18.1,15,0.00,,,0.00,WUHU21636XXSP,2013-01-23 16:58:00,
2013-01-23 10:00:00,50.7,4.6,30.21,NNW,332,10.5,16.3,15,0.00,,,0.00,WUHU21636XXSP,2013-01-23 17:00:00,
2013-01-23 10:01:00,50.9,3.7,30.20,NNW,337,12.0,19.4,15,0.00,,,0.00,WUHU21636XXSP,2013-01-23 17:01:00,
2013-01-23 10:03:00,51.1,3.7,30.21,NNW,327,13.0,19.4,15,0.00,,,0.00,WUHU21636XXSP,2013-01-23 17:03:00,
2013-01-23 10:05:00,51.4,4.1,30.21,NW,321,9.9,19.4,15,0.00,,,0.00,WUHU21636XXSP,2013-01-23 17:05:00,
2013-01-23 10:06:00,51.6,4.3,30.21,WNW,292,6.7,19.4,15,0.00,,,0.00,WUHU21636XXSP,2013-01-23 17:06:00,
2013-01-23 10:08:00,51.6,4.3,30.21,NNW,337,10.0,19.4,15,0.00,,,0.00,WUHU21636XXSP,2013-01-23 17:08:00,
2013-01-23 10:10:00,52.0,4.5,30.21,NNW,329,10.4,19.4,15,0.00,,,0.00,WUHU21636XXSP,2013-01-23 17:10:00,
2013-01-23 10:11:00,52.2,4.6,30.21,NW,323,9.3,17.6,15,0.00,,,0.00,WUHU21636XXSP,2013-01-23 17:11:00,
2013-01-23 10:13:00,52.5,5.0,30.21,NW,326,10.2,17.6,15,0.00,,,0.00,WUHU21636XXSP,2013-01-23 17:13:00,
2013-01-23 10:15:00,52.5,5.0,30.21,NNW,332,10.7,17.6,15,0.00,,,0.00,WUHU21636XXSP,2013-01-23 17:15:00,
2013-01-23 10:17:00,52.9,5.2,30.21,NW,315,12.3,17.6,15,0.00,,,0.00,WUHU21636XXSP,2013-01-23 17:17:00,
2013-01-23 10:18:00,53.1,5.4,30.21,NNW,331,11.1,17.6,15,0.00,,,0.00,WUHU21636XXSP,2013-01-23 17:18:00,
2013-01-23 10:20:00,53.2,5.5,30.21,NNW,337,9.3,17.0,15,0.00,,,0.00,WUHU21636XXSP,2013-01-23 17:20:00,
2013-01-23 10:22:00,53.4,5.7,30.21,NNW,337,12.9,17.2,15,0.00,,,0.00,WUHU21636XXSP,2013-01-23 17:22:00,
2013-01-23 10:23:00,53.8,5.9,30.21,NNW,337,11.7,17.2,15,0.00,,,0.00,WUHU21636XXSP,2013-01-23 17:23:00,
2013-01-23 10:25:00,54.0,6.1,30.21,NNW,337,12.0,17.2,15,0.00,,,0.00,WUHU21636XXSP,2013-01-23 17:25:00,
2013-01-23 10:27:00,54.0,4.6,30.21,NW,324,10.4,17.2,14,0.00,,,0.00,WUHU21636XXSP,2013-01-23 17:27:00,
2013-01-23 10:28:00,54.1,6.3,30.21,NNW,337,10.0,17.2,15,0.00,,,0.00,WUHU21636XXSP,2013-01-23 17:28:00,
2013-01-23 10:29:00,54.1,6.3,30.21,NNW,337,10.0,17.2,15,0.00,,,0.00,WUHU21636XXSP,2013-01-23 17:29:00,
2013-01-23 10:30:00,54.3,6.4,30.21,NNW,336,8.8,17.2,15,0.00,,,0.00,WUHU21636XXSP,2013-01-23 17:30:00,
2013-01-23 10:32:00,54.7,6.8,30.21,NNW,337,6.9,16.5,15,0.00,,,0.00,WUHU21636XXSP,2013-01-23 17:32:00,
2013-01-23 10:34:00,55.0,7.0,30.20,NNW,337,11.4,15.4,15,0.00,,,0.00,WUHU21636XXSP,2013-01-23 17:34:00,
2013-01-23 10:35:00,55.6,7.5,30.20,NNW,337,10.9,15.4,15,0.00,,,0.00,WUHU21636XXSP,2013-01-23 17:35:00,
2013-01-23 10:37:00,55.9,7.7,30.20,NNW,337,9.6,15.4,15,0.00,,,0.00,WUHU21636XXSP,2013-01-23 17:37:00,
2013-01-23 10:39:00,56.1,7.9,30.20,NNW,337,8.6,15.4,15,0.00,,,0.00,WUHU21636XXSP,2013-01-23 17:39:00,
2013-01-23 10:40:00,56.5,8.2,30.20,NNW,337,7.1,15.4,15,0.00,,,0.00,WUHU21636XXSP,2013-01-23 17:40:00,
2013-01-23 10:42:00,56.8,8.4,30.20,NNW,335,5.8,15.4,15,0.00,,,0.00,WUHU21636XXSP,2013-01-23 17:42:00,
2013-01-23 10:44:00,57.0,8.6,30.20,NW,318,4.7,15.4,15,0.00,,,0.00,WUHU21636XXSP,2013-01-23 17:44:00,
2013-01-23 10:45:00,57.4,8.8,30.20,NW,322,4.7,12.7,15,0.00,,,0.00,WUHU21636XXSP,2013-01-23 17:45:00,
2013-01-23 10:47:00,57.7,7.5,30.20,NW,315,8.9,15.2,14,0.00,,,0.00,WUHU21636XXSP,2013-01-23 17:47:00,
2013-01-23 10:49:00,57.9,7.7,30.20,NW,325,5.4,15.2,14,0.00,,,0.00,WUHU21636XXSP,2013-01-23 17:49:00,
2013-01-23 10:50:00,58.3,9.5,30.20,NNW,337,3.2,15.2,15,0.00,,,0.00,WUHU21636XXSP,2013-01-23 17:50:00,
2013-01-23 10:52:00,59.2,8.8,30.20,NNW,337,2.5,15.2,14,0.00,,,0.00,WUHU21636XXSP,2013-01-23 17:52:00,
2013-01-23 10:54:00,59.2,8.8,30.20,NNW,337,1.3,15.2,14,0.00,,,0.00,WUHU21636XXSP,2013-01-23 17:54:00,
2013-01-23 10:55:00,59.7,9.1,30.20,NNW,337,4.0,15.2,14,0.00,,,0.00,WUHU21636XXSP,2013-01-23 17:55:00,
2013-01-23 10:57:00,60.4,8.2,30.20,NNW,327,3.9,4.0,13,0.00,,,0.00,WUHU21636XXSP,2013-01-23 17:57:00,
2013-01-23 10:59:00,60.6,8.4,30.20,NW,315,3.7,4.0,13,0.00,,,0.00,WUHU21636XXSP,2013-01-23 17:59:00,
2013-01-23 11:01:00,60.6,8.4,30.20,NW,315,3.1,4.0,13,0.00,,,0.00,WUHU21636XXSP,2013-01-23 18:01:00,
2013-01-23 11:03:00,61.2,8.8,30.20,NW,315,2.3,4.0,13,0.00,,,0.00,WUHU21636XXSP,2013-01-23 18:03:00,
2013-01-23 11:04:00,61.5,9.1,30.20,NW,315,2.2,4.0,13,0.00,,,0.00,WUHU21636XXSP,2013-01-23 18:04:00,
2013-01-23 11:06:00,61.9,9.3,30.20,NW,315,4.2,4.2,13,0.00,,,0.00,WUHU21636XXSP,2013-01-23 18:06:00,
2013-01-23 11:08:00,62.2,9.7,30.19,NW,311,4.1,4.2,13,0.00,,,0.00,WUHU21636XXSP,2013-01-23 18:08:00,
2013-01-23 11:09:00,62.2,9.7,30.19,WNW,292,3.8,4.2,13,0.00,,,0.00,WUHU21636XXSP,2013-01-23 18:09:00,
2013-01-23 11:10:00,62.8,10.0,30.19,WNW,292,3.8,4.2,13,0.00,,,0.00,WUHU21636XXSP,2013-01-23 18:10:00,
2013-01-23 11:11:00,62.8,10.0,30.19,WNW,292,3.4,4.2,13,0.00,,,0.00,WUHU21636XXSP,2013-01-23 18:11:00,
2013-01-23 11:13:00,62.8,10.0,30.19,NNW,337,5.3,8.2,13,0.00,,,0.00,WUHU21636XXSP,2013-01-23 18:13:00,
2013-01-23 11:14:00,63.1,10.4,30.19,NW,315,6.7,12.0,13,0.00,,,0.00,WUHU21636XXSP,2013-01-23 18:14:00,
2013-01-23 11:15:00,63.1,10.4,30.19,NW,326,6.1,12.0,13,0.00,,,0.00,WUHU21636XXSP,2013-01-23 18:15:00,
2013-01-23 11:16:00,63.1,8.8,30.19,NW,319,5.7,12.0,12,0.00,,,0.00,WUHU21636XXSP,2013-01-23 18:16:00,
2013-01-23 11:18:00,63.3,9.0,30.19,WNW,292,5.8,12.0,12,0.00,,,0.00,WUHU21636XXSP,2013-01-23 18:18:00,
2013-01-23 11:20:00,63.3,9.0,30.19,WNW,292,5.8,12.0,12,0.00,,,0.00,WUHU21636XXSP,2013-01-23 18:20:00,
2013-01-23 11:21:00,63.3,9.0,30.19,WNW,301,4.5,12.0,12,0.00,,,0.00,WUHU21636XXSP,2013-01-23 18:21:00,
2013-01-23 11:23:00,63.5,12.2,30.19,NW,315,1.8,12.0,14,0.00,,,0.00,WUHU21636XXSP,2013-01-23 18:23:00,
2013-01-23 11:25:00,63.9,12.4,30.19,NW,315,2.6,6.7,14,0.00,,,0.00,WUHU21636XXSP,2013-01-23 18:25:00,
2013-01-23 11:26:00,63.9,12.4,30.19,NW,315,2.6,5.8,14,0.00,,,0.00,WUHU21636XXSP,2013-01-23 18:26:00,
2013-01-23 11:28:00,64.2,12.7,30.19,NW,315,3.5,5.8,14,0.00,,,0.00,WUHU21636XXSP,2013-01-23 18:28:00,
2013-01-23 11:30:00,64.6,13.1,30.19,NW,315,3.8,3.8,14,0.00,,,0.00,WUHU21636XXSP,2013-01-23 18:30:00,
2013-01-23 11:31:00,64.8,11.7,30.19,WNW,292,4.2,4.2,13,0.00,,,0.00,WUHU21636XXSP,2013-01-23 18:31:00,
2013-01-23 11:34:00,64.8,8.4,30.19,WNW,282,4.7,7.1,11,0.00,,,0.00,WUHU21636XXSP,2013-01-23 18:34:00,
2013-01-23 11:35:00,64.6,8.2,30.18,WNW,283,3.8,7.1,11,0.00,,,0.00,WUHU21636XXSP,2013-01-23 18:35:00,
2013-01-23 11:37:00,64.6,8.2,30.18,WNW,298,3.1,7.1,12,0.00,,,0.00,WUHU21636XXSP,2013-01-23 18:37:00,
2013-01-23 11:39:00,64.4,8.1,30.18,West,270,2.6,7.1,11,0.00,,,0.00,WUHU21636XXSP,2013-01-23 18:39:00,
2013-01-23 11:40:00,64.2,8.1,30.18,West,270,2.4,7.1,11,0.00,,,0.00,WUHU21636XXSP,2013-01-23 18:40:00,
2013-01-23 11:41:00,64.2,8.1,30.18,West,270,2.2,7.1,11,0.00,,,0.00,WUHU21636XXSP,2013-01-23 18:41:00,
2013-01-23 11:42:00,64.2,8.1,30.18,West,270,0.6,7.1,11,0.00,,,0.00,WUHU21636XXSP,2013-01-23 18:42:00,
2013-01-23 11:44:00,64.2,8.1,30.18,WNW,292,3.8,4.4,12,0.00,,,0.00,WUHU21636XXSP,2013-01-23 18:44:00,
2013-01-23 11:45:00,64.0,9.5,30.18,WNW,292,3.6,3.8,12,0.00,,,0.00,WUHU21636XXSP,2013-01-23 18:45:00,
2013-01-23 11:46:00,64.0,9.5,30.18,WNW,292,3.5,3.8,12,0.00,,,0.00,WUHU21636XXSP,2013-01-23 18:46:00,
2013-01-23 11:47:00,64.0,9.5,30.18,WNW,292,3.3,3.8,12,0.00,,,0.00,WUHU21636XXSP,2013-01-23 18:47:00,
2013-01-23 11:49:00,64.0,9.5,30.18,West,270,1.8,3.8,12,0.00,,,0.00,WUHU21636XXSP,2013-01-23 18:49:00,
2013-01-23 11:51:00,64.0,9.5,30.18,West,270,0.2,3.8,12,0.00,,,0.00,WUHU21636XXSP,2013-01-23 18:51:00,
2013-01-23 11:52:00,64.0,9.5,30.18,West,270,0.0,3.8,12,0.00,,,0.00,WUHU21636XXSP,2013-01-23 18:52:00,
2013-01-23 11:54:00,64.0,9.5,30.18,NW,315,2.2,3.8,12,0.00,,,0.00,WUHU21636XXSP,2013-01-23 18:54:00,
2013-01-23 11:56:00,64.0,10.9,30.18,WNW,292,6.9,8.0,13,0.00,,,0.00,WUHU21636XXSP,2013-01-23 18:56:00,
2013-01-23 11:57:00,64.0,9.5,30.18,WNW,284,4.6,8.7,12,0.00,,,0.00,WUHU21636XXSP,2013-01-23 18:57:00,
2013-01-23 11:59:00,64.2,9.5,30.18,West,270,3.3,8.7,12,0.00,,,0.00,WUHU21636XXSP,2013-01-23 18:59:00,
2013-01-23 12:01:00,64.2,9.5,30.18,West,270,2.9,8.7,12,0.00,,,0.00,WUHU21636XXSP,2013-01-23 19:01:00,
2013-01-23 12:02:00,64.2,9.5,30.17,West,270,1.2,8.7,12,0.00,,,0.00,WUHU21636XXSP,2013-01-23 19:02:00,
2013-01-23 12:05:00,64.6,9.9,30.17,West,270,0.0,8.7,12,0.00,,,0.00,WUHU21636XXSP,2013-01-23 19:05:00,
2013-01-23 12:06:00,64.9,10.2,30.17,West,270,2.2,8.7,12,0.00,,,0.00,WUHU21636XXSP,2013-01-23 19:06:00,
2013-01-23 12:08:00,65.1,10.2,30.17,West,270,1.9,3.3,12,0.00,,,0.00,WUHU21636XXSP,2013-01-23 19:08:00,
2013-01-23 12:10:00,65.5,10.6,30.17,West,270,0.5,3.3,12,0.00,,,0.00,WUHU21636XXSP,2013-01-23 19:10:00,
2013-01-23 12:11:00,65.5,10.6,30.17,West,270,0.1,2.2,12,0.00,,,0.00,WUHU21636XXSP,2013-01-23 19:11:00,
2013-01-23 12:13:00,65.7,10.8,30.17,West,270,1.3,2.2,12,0.00,,,0.00,WUHU21636XXSP,2013-01-23 19:13:00,
2013-01-23 12:15:00,65.8,10.9,30.17,West,270,3.1,3.1,12,0.00,,,0.00,WUHU21636XXSP,2013-01-23 19:15:00,
2013-01-23 12:16:00,66.0,10.9,30.17,West,270,2.6,3.1,12,0.00,,,0.00,WUHU21636XXSP,2013-01-23 19:16:00,
2013-01-23 12:18:00,66.2,9.5,30.17,West,270,0.0,3.1,11,0.00,,,0.00,WUHU21636XXSP,2013-01-23 19:18:00,
2013-01-23 12:20:00,66.0,9.5,30.17,West,270,4.0,4.0,11,0.00,,,0.00,WUHU21636XXSP,2013-01-23 19:20:00,
2013-01-23 12:21:00,66.0,9.5,30.17,West,270,4.0,4.0,11,0.00,,,0.00,WUHU21636XXSP,2013-01-23 19:21:00,
2013-01-23 12:23:00,66.0,9.5,30.17,West,270,1.9,4.0,11,0.00,,,0.00,WUHU21636XXSP,2013-01-23 19:23:00,
2013-01-23 12:26:00,66.0,9.5,30.17,West,270,0.0,4.0,11,0.00,,,0.00,WUHU21636XXSP,2013-01-23 19:26:00,
2013-01-23 12:27:00,66.2,11.1,30.17,West,270,0.6,4.0,12,0.00,,,0.00,WUHU21636XXSP,2013-01-23 19:27:00,
2013-01-23 12:29:00,66.2,11.1,30.17,West,270,0.6,4.0,12,0.00,,,0.00,WUHU21636XXSP,2013-01-23 19:29:00,
2013-01-23 12:31:00,66.6,11.5,30.17,West,270,1.3,4.0,12,0.00,,,0.00,WUHU21636XXSP,2013-01-23 19:31:00,
2013-01-23 12:32:00,66.7,11.7,30.17,West,270,0.8,4.0,12,0.00,,,0.00,WUHU21636XXSP,2013-01-23 19:32:00,
2013-01-23 12:34:00,66.9,11.7,30.17,West,270,0.0,1.3,12,0.00,,,0.00,WUHU21636XXSP,2013-01-23 19:34:00,
2013-01-23 12:36:00,67.3,12.0,30.17,West,270,0.0,1.3,12,0.00,,,0.00,WUHU21636XXSP,2013-01-23 19:36:00,
2013-01-23 12:37:00,67.3,12.0,30.17,West,270,0.0,1.3,12,0.00,,,0.00,WUHU21636XXSP,2013-01-23 19:37:00,
2013-01-23 12:39:00,67.6,12.4,30.17,West,270,0.0,1.3,12,0.00,,,0.00,WUHU21636XXSP,2013-01-23 19:39:00,
2013-01-23 12:41:00,67.6,12.4,30.17,West,270,0.0,0.0,12,0.00,,,0.00,WUHU21636XXSP,2013-01-23 19:41:00,
2013-01-23 12:42:00,67.6,12.4,30.17,West,270,0.0,0.0,12,0.00,,,0.00,WUHU21636XXSP,2013-01-23 19:42:00,
2013-01-23 12:44:00,67.8,10.9,30.16,West,270,0.5,0.8,11,0.00,,,0.00,WUHU21636XXSP,2013-01-23 19:44:00,
2013-01-23 12:46:00,67.8,10.9,30.16,West,270,0.0,0.8,11,0.00,,,0.00,WUHU21636XXSP,2013-01-23 19:46:00,
2013-01-23 12:47:00,68.0,10.9,30.17,West,270,0.0,0.8,11,0.00,,,0.00,WUHU21636XXSP,2013-01-23 19:47:00,
2013-01-23 12:50:00,68.0,10.9,30.17,West,270,0.0,0.8,11,0.00,,,0.00,WUHU21636XXSP,2013-01-23 19:50:00,
2013-01-23 12:51:00,68.2,11.1,30.17,West,270,3.3,3.3,11,0.00,,,0.00,WUHU21636XXSP,2013-01-23 19:51:00,
2013-01-23 12:52:00,68.2,11.1,30.17,West,270,3.3,3.3,11,0.00,,,0.00,WUHU21636XXSP,2013-01-23 19:52:00,
2013-01-23 12:55:00,68.4,11.3,30.16,West,270,0.3,3.3,11,0.00,,,0.00,WUHU21636XXSP,2013-01-23 19:55:00,
2013-01-23 12:56:00,68.4,11.3,30.17,West,270,0.1,3.3,11,0.00,,,0.00,WUHU21636XXSP,2013-01-23 19:56:00,
2013-01-23 12:57:00,68.4,11.3,30.17,South,180,5.8,5.8,11,0.00,,,0.00,WUHU21636XXSP,2013-01-23 19:57:00,
2013-01-23 12:58:00,68.4,11.3,30.17,South,180,5.8,5.8,11,0.00,,,0.00,WUHU21636XXSP,2013-01-23 19:58:00,
2013-01-23 13:00:00,68.2,12.7,30.17,South,180,4.7,5.8,12,0.00,,,0.00,WUHU21636XXSP,2013-01-23 20:00:00,
2013-01-23 13:01:00,68.0,12.6,30.16,South,180,4.0,5.8,12,0.00,,,0.00,WUHU21636XXSP,2013-01-23 20:01:00,
2013-01-23 13:02:00,68.0,12.6,30.17,South,180,3.3,5.8,12,0.00,,,0.00,WUHU21636XXSP,2013-01-23 20:02:00,
2013-01-23 13:04:00,67.8,12.4,30.16,South,180,4.4,5.8,12,0.00,,,0.00,WUHU21636XXSP,2013-01-23 20:04:00,
2013-01-23 13:05:00,67.6,12.4,30.16,SSE,157,5.1,5.8,12,0.00,,,0.00,WUHU21636XXSP,2013-01-23 20:05:00,
2013-01-23 13:07:00,67.6,12.4,30.16,SSE,157,5.1,5.8,12,0.00,,,0.00,WUHU21636XXSP,2013-01-23 20:07:00,
2013-01-23 13:10:00,67.6,12.4,30.16,SSW,212,4.6,6.7,12,0.00,,,0.00,WUHU21636XXSP,2013-01-23 20:10:00,
2013-01-23 13:11:00,67.5,12.2,30.16,SW,215,4.7,6.9,12,0.00,,,0.00,WUHU21636XXSP,2013-01-23 20:11:00,
2013-01-23 13:12:00,67.5,12.2,30.16,SSW,202,4.4,6.9,12,0.00,,,0.00,WUHU21636XXSP,2013-01-23 20:12:00,
2013-01-23 13:15:00,67.5,12.2,30.16,SSE,157,2.4,6.9,12,0.00,,,0.00,WUHU21636XXSP,2013-01-23 20:15:00,
2013-01-23 13:16:00,67.6,12.4,30.16,South,180,4.6,6.9,12,0.00,,,0.00,WUHU21636XXSP,2013-01-23 20:16:00,
2013-01-23 13:17:00,67.6,12.4,30.16,South,179,4.5,6.9,12,0.00,,,0.00,WUHU21636XXSP,2013-01-23 20:17:00,
2013-01-23 13:20:00,67.6,12.4,30.16,SSE,157,3.3,6.9,12,0.00,,,0.00,WUHU21636XXSP,2013-01-23 20:20:00,
2013-01-23 13:21:00,67.6,12.4,30.16,SSE,157,3.3,4.6,12,0.00,,,0.00,WUHU21636XXSP,2013-01-23 20:21:00,
2013-01-23 13:22:00,67.8,12.4,30.16,SSE,147,3.1,4.6,12,0.00,,,0.00,WUHU21636XXSP,2013-01-23 20:22:00,
2013-01-23 13:25:00,68.0,12.6,30.16,SSE,157,4.2,4.6,12,0.00,,,0.00,WUHU21636XXSP,2013-01-23 20:25:00,
2013-01-23 13:26:00,68.2,12.7,30.17,SSE,158,2.8,4.6,12,0.00,,,0.00,WUHU21636XXSP,2013-01-23 20:26:00,
2013-01-23 13:27:00,68.2,12.7,30.16,SSE,166,0.9,4.2,12,0.00,,,0.00,WUHU21636XXSP,2013-01-23 20:27:00,
2013-01-23 13:30:00,68.4,11.3,30.16,South,180,3.1,4.2,11,0.00,,,0.00,WUHU21636XXSP,2013-01-23 20:30:00,
2013-01-23 13:31:00,68.5,11.5,30.16,SSW,192,2.1,4.2,11,0.00,,,0.00,WUHU21636XXSP,2013-01-23 20:31:00,
2013-01-23 13:32:00,68.5,11.5,30.16,SSW,202,3.5,4.2,11,0.00,,,0.00,WUHU21636XXSP,2013-01-23 20:32:00,
2013-01-23 13:35:00,68.5,11.5,30.16,South,180,3.5,4.2,11,0.00,,,0.00,WUHU21636XXSP,2013-01-23 20:35:00,
2013-01-23 13:37:00,68.4,9.7,30.16,South,178,3.5,3.5,10,0.00,,,0.00,WUHU21636XXSP,2013-01-23 20:37:00,
2013-01-23 13:38:00,68.4,9.7,30.16,SSE,147,3.2,3.5,10,0.00,,,0.00,WUHU21636XXSP,2013-01-23 20:38:00,
2013-01-23 13:41:00,67.8,10.9,30.16,South,176,5.7,7.6,11,0.00,,,0.00,WUHU21636XXSP,2013-01-23 20:41:00,
2013-01-23 13:42:00,67.6,10.8,30.16,South,171,5.4,7.8,11,0.00,,,0.00,WUHU21636XXSP,2013-01-23 20:42:00,
2013-01-23 13:43:00,67.6,10.8,30.16,South,176,4.5,7.8,11,0.00,,,0.00,WUHU21636XXSP,2013-01-23 20:43:00,
2013-01-23 13:46:00,67.3,12.0,30.16,SSE,157,5.4,7.8,12,0.00,,,0.00,WUHU21636XXSP,2013-01-23 20:46:00,
2013-01-23 13:47:00,67.3,12.0,30.16,SSE,157,4.2,7.8,12,0.00,,,0.00,WUHU21636XXSP,2013-01-23 20:47:00,
2013-01-23 13:48:00,67.3,12.0,30.16,SSE,157,3.1,7.8,12,0.00,,,0.00,WUHU21636XXSP,2013-01-23 20:48:00,
2013-01-23 13:51:00,67.1,11.8,30.16,SSW,202,4.9,7.8,12,0.00,,,0.00,WUHU21636XXSP,2013-01-23 20:51:00,
2013-01-23 13:52:00,67.1,11.8,30.16,SSW,202,4.9,5.5,12,0.00,,,0.00,WUHU21636XXSP,2013-01-23 20:52:00,
2013-01-23 13:53:00,66.9,11.7,30.16,SSW,202,3.4,5.5,12,0.00,,,0.00,WUHU21636XXSP,2013-01-23 20:53:00,
2013-01-23 13:56:00,66.9,11.7,30.17,South,180,2.9,4.9,12,0.00,,,0.00,WUHU21636XXSP,2013-01-23 20:56:00,
2013-01-23 13:57:00,66.9,11.7,30.17,SSE,157,4.6,4.9,12,0.00,,,0.00,WUHU21636XXSP,2013-01-23 20:57:00,
2013-01-23 13:58:00,66.9,11.7,30.17,SSE,157,4.6,4.9,12,0.00,,,0.00,WUHU21636XXSP,2013-01-23 20:58:00,
2013-01-23 14:01:00,66.9,11.7,30.17,SSE,155,4.3,6.7,12,0.00,,,0.00,WUHU21636XXSP,2013-01-23 21:01:00,
2013-01-23 14:02:00,66.7,11.7,30.17,SSE,156,3.5,6.7,12,0.00,,,0.00,WUHU21636XXSP,2013-01-23 21:02:00,
2013-01-23 14:03:00,66.7,11.7,30.17,SE,146,3.4,6.7,12,0.00,,,0.00,WUHU21636XXSP,2013-01-23 21:03:00,
2013-01-23 14:06:00,66.6,11.5,30.17,SE,135,5.8,6.7,12,0.00,,,0.00,WUHU21636XXSP,2013-01-23 21:06:00,
2013-01-23 14:07:00,66.4,11.3,30.16,SSE,151,5.9,7.6,12,0.00,,,0.00,WUHU21636XXSP,2013-01-23 21:07:00,
2013-01-23 14:08:00,66.4,11.3,30.16,South,169,4.9,7.6,12,0.00,,,0.00,WUHU21636XXSP,2013-01-23 21:08:00,
2013-01-23 14:11:00,66.4,11.3,30.17,ESE,112,5.8,7.6,12,0.00,,,0.00,WUHU21636XXSP,2013-01-23 21:11:00,
2013-01-23 14:13:00,66.0,12.6,30.17,SSW,202,7.1,10.2,13,0.00,,,0.00,WUHU21636XXSP,2013-01-23 21:13:00,
2013-01-23 14:14:00,65.8,12.4,30.16,South,172,6.2,10.2,13,0.00,,,0.00,WUHU21636XXSP,2013-01-23 21:14:00,
2013-01-23 14:16:00,65.8,12.4,30.17,South,180,5.3,10.2,13,0.00,,,0.00,WUHU21636XXSP,2013-01-23 21:16:00,
2013-01-23 14:18:00,65.8,12.4,30.16,South,180,5.3,10.2,13,0.00,,,0.00,WUHU21636XXSP,2013-01-23 21:18:00,
2013-01-23 14:19:00,65.5,12.2,30.17,South,180,5.5,10.2,13,0.00,,,0.00,WUHU21636XXSP,2013-01-23 21:19:00,
2013-01-23 14:21:00,65.5,13.8,30.17,South,180,3.5,10.2,14,0.00,,,0.00,WUHU21636XXSP,2013-01-23 21:21:00,
2013-01-23 14:23:00,65.5,13.8,30.17,SSE,157,6.9,8.5,14,0.00,,,0.00,WUHU21636XXSP,2013-01-23 21:23:00,
2013-01-23 14:24:00,65.5,13.8,30.17,SSE,152,4.6,8.5,14,0.00,,,0.00,WUHU21636XXSP,2013-01-23 21:24:00,
2013-01-23 14:26:00,65.1,13.5,30.17,SE,135,3.8,8.5,14,0.00,,,0.00,WUHU21636XXSP,2013-01-23 21:26:00,
2013-01-23 14:28:00,65.1,13.5,30.17,SE,143,3.7,8.5,14,0.00,,,0.00,WUHU21636XXSP,2013-01-23 21:28:00,
2013-01-23 14:29:00,65.1,13.5,30.17,SSE,157,3.5,7.3,14,0.00,,,0.00,WUHU21636XXSP,2013-01-23 21:29:00,
2013-01-23 14:32:00,64.8,13.1,30.17,SE,142,4.5,10.5,14,0.00,,,0.00,WUHU21636XXSP,2013-01-23 21:32:00,
2013-01-23 14:33:00,64.6,13.1,30.17,SE,135,3.4,10.5,14,0.00,,,0.00,WUHU21636XXSP,2013-01-23 21:33:00,
2013-01-23 14:34:00,64.6,13.1,30.17,SE,135,3.2,10.5,14,0.00,,,0.00,WUHU21636XXSP,2013-01-23 21:34:00,
2013-01-23 14:37:00,64.0,15.8,30.17,SE,135,5.5,10.5,16,0.00,,,0.00,WUHU21636XXSP,2013-01-23 21:37:00,
2013-01-23 14:38:00,64.0,15.8,30.18,SE,135,3.5,10.5,16,0.00,,,0.00,WUHU21636XXSP,2013-01-23 21:38:00,
2013-01-23 14:39:00,63.7,15.4,30.18,SE,135,4.4,10.5,16,0.00,,,0.00,WUHU21636XXSP,2013-01-23 21:39:00,
2013-01-23 14:42:00,63.3,16.7,30.17,SE,135,6.9,10.7,17,0.00,,,0.00,WUHU21636XXSP,2013-01-23 21:42:00,
2013-01-23 14:43:00,62.8,18.0,30.17,SSE,157,8.0,11.8,18,0.00,,,0.00,WUHU21636XXSP,2013-01-23 21:43:00,
2013-01-23 14:44:00,62.6,17.8,30.17,SSE,157,8.0,11.8,18,0.00,,,0.00,WUHU21636XXSP,2013-01-23 21:44:00,
2013-01-23 14:47:00,62.2,17.6,30.18,SSE,157,4.4,12.5,18,0.00,,,0.00,WUHU21636XXSP,2013-01-23 21:47:00,
2013-01-23 14:48:00,61.9,17.2,30.18,SE,135,4.6,12.5,18,0.00,,,0.00,WUHU21636XXSP,2013-01-23 21:48:00,
2013-01-23 14:49:00,61.9,17.2,30.18,SE,135,4.6,12.5,18,0.00,,,0.00,WUHU21636XXSP,2013-01-23 21:49:00,
2013-01-23 14:52:00,61.0,16.5,30.18,SE,137,6.2,12.5,18,0.00,,,0.00,WUHU21636XXSP,2013-01-23 21:52:00,
2013-01-23 14:54:00,61.0,16.5,30.18,SSE,157,8.2,13.4,18,0.00,,,0.00,WUHU21636XXSP,2013-01-23 21:54:00,
2013-01-23 14:57:00,60.4,17.9,30.18,SE,135,3.3,13.4,19,0.00,,,0.00,WUHU21636XXSP,2013-01-23 21:57:00,
2013-01-23 14:59:00,59.9,18.7,30.18,ENE,67,4.6,13.4,20,0.00,,,0.00,WUHU21636XXSP,2013-01-23 21:59:00,
2013-01-23 15:03:00,58.6,18.5,30.18,ESE,112,7.1,13.4,21,0.00,,,0.00,WUHU21636XXSP,2013-01-23 22:03:00,
2013-01-23 15:04:00,58.6,18.5,30.18,SE,135,6.9,12.9,21,0.00,,,0.00,WUHU21636XXSP,2013-01-23 22:04:00,
2013-01-23 15:08:00,58.1,18.1,30.18,ESE,112,3.0,10.9,21,0.00,,,0.00,WUHU21636XXSP,2013-01-23 22:08:00,
2013-01-23 15:09:00,57.7,17.8,30.18,SE,135,2.6,10.9,21,0.00,,,0.00,WUHU21636XXSP,2013-01-23 22:09:00,
2013-01-23 15:10:00,57.7,17.8,30.18,SE,135,2.6,10.9,21,0.00,,,0.00,WUHU21636XXSP,2013-01-23 22:10:00,
2013-01-23 15:13:00,57.4,17.6,30.18,SSE,155,3.2,10.9,21,0.00,,,0.00,WUHU21636XXSP,2013-01-23 22:13:00,
2013-01-23 15:14:00,57.4,17.6,30.18,SE,127,2.3,9.1,21,0.00,,,0.00,WUHU21636XXSP,2013-01-23 22:14:00,
2013-01-23 15:15:00,57.4,17.6,30.18,ESE,118,2.1,9.1,21,0.00,,,0.00,WUHU21636XXSP,2013-01-23 22:15:00,
2013-01-23 15:18:00,56.7,16.9,30.18,ESE,104,3.4,7.1,21,0.00,,,0.00,WUHU21636XXSP,2013-01-23 22:18:00,
2013-01-23 15:20:00,56.7,16.9,30.18,East,90,2.9,7.1,21,0.00,,,0.00,WUHU21636XXSP,2013-01-23 22:20:00,
2013-01-23 15:23:00,56.5,16.9,30.18,ESE,112,4.2,7.1,21,0.00,,,0.00,WUHU21636XXSP,2013-01-23 22:23:00,
2013-01-23 15:25:00,56.3,16.7,30.18,ESE,105,3.7,7.1,21,0.00,,,0.00,WUHU21636XXSP,2013-01-23 22:25:00,
2013-01-23 15:28:00,56.1,16.5,30.18,East,90,0.0,4.2,21,0.00,,,0.00,WUHU21636XXSP,2013-01-23 22:28:00,
2013-01-23 15:30:00,56.1,16.5,30.18,East,90,0.0,4.2,21,0.00,,,0.00,WUHU21636XXSP,2013-01-23 22:30:00,
2013-01-23 15:31:00,55.9,16.3,30.18,East,90,0.0,4.2,21,0.00,,,0.00,WUHU21636XXSP,2013-01-23 22:31:00,
2013-01-23 15:33:00,55.8,15.3,30.19,East,90,0.0,4.2,20,0.00,,,0.00,WUHU21636XXSP,2013-01-23 22:33:00,
2013-01-23 15:35:00,55.6,15.1,30.19,SE,135,0.0,2.9,20,0.00,,,0.00,WUHU21636XXSP,2013-01-23 22:35:00,
2013-01-23 15:36:00,55.6,15.1,30.19,SE,135,0.0,2.9,20,0.00,,,0.00,WUHU21636XXSP,2013-01-23 22:36:00,
2013-01-23 15:39:00,55.6,15.1,30.19,SE,135,0.0,0.0,20,0.00,,,0.00,WUHU21636XXSP,2013-01-23 22:39:00,
2013-01-23 15:40:00,55.6,15.1,30.19,SE,135,0.0,0.0,20,0.00,,,0.00,WUHU21636XXSP,2013-01-23 22:40:00,
2013-01-23 15:41:00,55.6,15.1,30.19,SE,135,0.0,0.0,20,0.00,,,0.00,WUHU21636XXSP,2013-01-23 22:41:00,
2013-01-23 15:44:00,55.2,14.9,30.19,SE,135,0.0,0.0,20,0.00,,,0.00,WUHU21636XXSP,2013-01-23 22:44:00,
2013-01-23 15:45:00,55.2,14.9,30.18,SE,135,0.0,0.0,20,0.00,,,0.00,WUHU21636XXSP,2013-01-23 22:45:00,
2013-01-23 15:46:00,55.2,14.9,30.19,SE,135,0.0,0.0,20,0.00,,,0.00,WUHU21636XXSP,2013-01-23 22:46:00,
2013-01-23 15:49:00,55.0,14.7,30.19,SE,135,0.0,0.0,20,0.00,,,0.00,WUHU21636XXSP,2013-01-23 22:49:00,
2013-01-23 15:50:00,55.0,14.7,30.19,SE,135,0.0,0.0,20,0.00,,,0.00,WUHU21636XXSP,2013-01-23 22:50:00,
2013-01-23 15:51:00,55.0,14.7,30.19,SE,135,0.0,0.0,20,0.00,,,0.00,WUHU21636XXSP,2013-01-23 22:51:00,
2013-01-23 15:54:00,54.7,15.3,30.19,SE,135,0.0,0.0,21,0.00,,,0.00,WUHU21636XXSP,2013-01-23 22:54:00,
2013-01-23 15:55:00,54.5,15.1,30.19,SE,135,0.0,0.0,21,0.00,,,0.00,WUHU21636XXSP,2013-01-23 22:55:00,
2013-01-23 15:56:00,54.5,15.1,30.19,SE,135,0.0,0.0,21,0.00,,,0.00,WUHU21636XXSP,2013-01-23 22:56:00,
2013-01-23 15:59:00,54.3,14.9,30.19,SE,135,0.0,0.0,21,0.00,,,0.00,WUHU21636XXSP,2013-01-23 22:59:00,
2013-01-23 16:01:00,54.3,14.9,30.19,SE,135,0.0,0.0,21,0.00,,,0.00,WUHU21636XXSP,2013-01-23 23:01:00,
2013-01-23 16:04:00,54.1,14.7,30.19,SE,135,0.0,0.0,21,0.00,,,0.00,WUHU21636XXSP,2013-01-23 23:04:00,
2013-01-23 16:06:00,54.0,14.7,30.19,SE,135,0.0,0.0,21,0.00,,,0.00,WUHU21636XXSP,2013-01-23 23:06:00,
2013-01-23 16:07:00,54.0,14.7,30.19,SE,135,0.0,0.0,21,0.00,,,0.00,WUHU21636XXSP,2013-01-23 23:07:00,
2013-01-23 16:09:00,53.8,14.5,30.19,SE,135,0.0,0.0,21,0.00,,,0.00,WUHU21636XXSP,2013-01-23 23:09:00,
2013-01-23 16:11:00,53.8,14.5,30.19,SE,135,0.0,0.0,21,0.00,,,0.00,WUHU21636XXSP,2013-01-23 23:11:00,
2013-01-23 16:12:00,53.6,14.4,30.19,SE,135,0.0,0.0,21,0.00,,,0.00,WUHU21636XXSP,2013-01-23 23:12:00,
2013-01-23 16:14:00,53.4,14.2,30.19,SE,135,0.0,0.0,21,0.00,,,0.00,WUHU21636XXSP,2013-01-23 23:14:00,
2013-01-23 16:16:00,53.2,14.0,30.19,SE,135,2.2,2.2,21,0.00,,,0.00,WUHU21636XXSP,2013-01-23 23:16:00,
2013-01-23 16:17:00,53.2,14.0,30.19,SE,135,2.2,2.2,21,0.00,,,0.00,WUHU21636XXSP,2013-01-23 23:17:00,
2013-01-23 16:19:00,53.2,14.0,30.20,SE,135,0.4,2.2,21,0.00,,,0.00,WUHU21636XXSP,2013-01-23 23:19:00,
2013-01-23 16:22:00,52.9,14.7,30.20,SE,135,0.0,2.2,22,0.00,,,0.00,WUHU21636XXSP,2013-01-23 23:22:00,
2013-01-23 16:24:00,52.5,14.4,30.19,SE,135,0.0,2.2,22,0.00,,,0.00,WUHU21636XXSP,2013-01-23 23:24:00,
2013-01-23 16:27:00,52.3,14.2,30.19,SE,135,0.0,2.2,22,0.00,,,0.00,WUHU21636XXSP,2013-01-23 23:27:00,
2013-01-23 16:28:00,52.3,14.2,30.20,SE,135,0.0,2.2,22,0.00,,,0.00,WUHU21636XXSP,2013-01-23 23:28:00,
2013-01-23 16:29:00,52.3,14.2,30.19,SE,135,0.0,0.0,22,0.00,,,0.00,WUHU21636XXSP,2013-01-23 23:29:00,
2013-01-23 16:32:00,52.0,14.0,30.20,SE,135,0.0,0.0,22,0.00,,,0.00,WUHU21636XXSP,2013-01-23 23:32:00,
2013-01-23 16:33:00,52.0,14.0,30.19,SE,135,0.0,0.0,22,0.00,,,0.00,WUHU21636XXSP,2013-01-23 23:33:00,
2013-01-23 16:35:00,52.0,14.0,30.20,SE,135,0.0,0.0,22,0.00,,,0.00,WUHU21636XXSP,2013-01-23 23:35:00,
2013-01-23 16:37:00,51.6,13.6,30.20,SE,135,0.0,0.0,22,0.00,,,0.00,WUHU21636XXSP,2013-01-23 23:37:00,
2013-01-23 16:38:00,51.4,13.5,30.20,SE,135,0.0,0.0,22,0.00,,,0.00,WUHU21636XXSP,2013-01-23 23:38:00,
2013-01-23 16:40:00,51.3,13.3,30.20,SE,135,0.0,0.0,22,0.00,,,0.00,WUHU21636XXSP,2013-01-23 23:40:00,
2013-01-23 16:42:00,51.1,14.2,30.20,NNW,337,0.0,0.0,23,0.00,,,0.00,WUHU21636XXSP,2013-01-23 23:42:00,
2013-01-23 16:43:00,51.1,14.2,30.20,NNW,337,0.0,0.0,23,0.00,,,0.00,WUHU21636XXSP,2013-01-23 23:43:00,
2013-01-23 16:45:00,50.7,13.8,30.20,NNW,337,0.0,0.0,23,0.00,,,0.00,WUHU21636XXSP,2013-01-23 23:45:00,
2013-01-23 16:47:00,50.7,13.8,30.20,NNW,337,0.0,0.0,23,0.00,,,0.00,WUHU21636XXSP,2013-01-23 23:47:00,
2013-01-23 16:48:00,50.7,13.8,30.20,NNW,337,0.0,0.0,23,0.00,,,0.00,WUHU21636XXSP,2013-01-23 23:48:00,
2013-01-23 16:50:00,50.4,13.5,30.20,NNW,337,0.0,0.0,23,0.00,,,0.00,WUHU21636XXSP,2013-01-23 23:50:00,
2013-01-23 16:52:00,50.4,13.5,30.20,NNW,337,0.0,0.0,23,0.00,,,0.00,WUHU21636XXSP,2013-01-23 23:52:00,
2013-01-23 16:53:00,50.2,13.5,30.20,NNW,337,0.0,0.0,23,0.00,,,0.00,WUHU21636XXSP,2013-01-23 23:53:00,
2013-01-23 16:56:00,50.0,13.3,30.20,NNW,337,0.0,0.0,23,0.00,,,0.00,WUHU21636XXSP,2013-01-23 23:56:00,
2013-01-23 16:57:00,49.8,13.1,30.20,NNW,337,1.3,1.3,23,0.00,,,0.00,WUHU21636XXSP,2013-01-23 23:57:00,
2013-01-23 16:58:00,49.8,13.1,30.20,NNW,337,1.3,1.3,23,0.00,,,0.00,WUHU21636XXSP,2013-01-23 23:58:00,
2013-01-23 17:01:00,49.6,12.9,30.20,NNW,337,0.8,1.3,23,0.00,,,0.00,WUHU21636XXSP,2013-01-24 00:01:00,
2013-01-23 17:03:00,49.1,13.5,30.20,NNW,337,0.2,1.3,24,0.00,,,0.00,WUHU21636XXSP,2013-01-24 00:03:00,
2013-01-23 17:06:00,48.7,13.1,30.20,NNW,337,0.0,1.3,24,0.00,,,0.00,WUHU21636XXSP,2013-01-24 00:06:00,
2013-01-23 17:08:00,48.4,12.7,30.20,NNW,337,0.0,1.3,24,0.00,,,0.00,WUHU21636XXSP,2013-01-24 00:08:00,
2013-01-23 17:11:00,48.0,13.5,30.20,NNW,337,0.0,0.0,25,0.00,,,0.00,WUHU21636XXSP,2013-01-24 00:11:00,
2013-01-23 17:13:00,48.0,13.5,30.20,NNW,337,0.0,0.0,25,0.00,,,0.00,WUHU21636XXSP,2013-01-24 00:13:00,
2013-01-23 17:17:00,47.8,13.3,30.20,NNW,337,0.0,0.0,25,0.00,,,0.00,WUHU21636XXSP,2013-01-24 00:17:00,
2013-01-23 17:18:00,47.8,13.3,30.20,NNW,337,0.0,0.0,25,0.00,,,0.00,WUHU21636XXSP,2013-01-24 00:18:00,
2013-01-23 17:19:00,47.5,12.9,30.20,NNW,337,0.8,0.8,25,0.00,,,0.00,WUHU21636XXSP,2013-01-24 00:19:00,
2013-01-23 17:22:00,47.1,12.6,30.20,NNW,337,1.1,1.1,25,0.00,,,0.00,WUHU21636XXSP,2013-01-24 00:22:00,
2013-01-23 17:23:00,46.9,13.5,30.20,NNW,337,1.7,1.7,26,0.00,,,0.00,WUHU21636XXSP,2013-01-24 00:23:00,
2013-01-23 17:24:00,46.9,13.5,30.20,NNW,337,1.7,1.7,26,0.00,,,0.00,WUHU21636XXSP,2013-01-24 00:24:00,
2013-01-23 17:27:00,46.6,12.2,30.20,NNW,337,0.0,1.7,25,0.00,,,0.00,WUHU21636XXSP,2013-01-24 00:27:00,
2013-01-23 17:28:00,46.6,12.2,30.20,NNW,337,0.0,1.7,25,0.00,,,0.00,WUHU21636XXSP,2013-01-24 00:28:00,
2013-01-23 17:29:00,46.6,12.2,30.20,NNW,337,0.0,1.7,25,0.00,,,0.00,WUHU21636XXSP,2013-01-24 00:29:00,
2013-01-23 17:32:00,46.2,12.7,30.20,NNW,337,0.0,1.7,26,0.00,,,0.00,WUHU21636XXSP,2013-01-24 00:32:00,
2013-01-23 17:33:00,46.2,12.7,30.20,NNW,337,0.0,1.7,26,0.00,,,0.00,WUHU21636XXSP,2013-01-24 00:33:00,
2013-01-23 17:34:00,46.0,12.6,30.20,NNW,337,0.0,1.7,26,0.00,,,0.00,WUHU21636XXSP,2013-01-24 00:34:00,
2013-01-23 17:37:00,45.9,12.6,30.21,NNW,337,3.1,3.1,26,0.00,,,0.00,WUHU21636XXSP,2013-01-24 00:37:00,
2013-01-23 17:38:00,45.7,12.4,30.21,NNW,342,2.8,3.1,26,0.00,,,0.00,WUHU21636XXSP,2013-01-24 00:38:00,
2013-01-23 17:39:00,45.7,12.4,30.21,North,350,2.4,3.1,26,0.00,,,0.00,WUHU21636XXSP,2013-01-24 00:39:00,
2013-01-23 17:42:00,45.3,12.0,30.21,NNE,22,2.0,3.1,26,0.00,,,0.00,WUHU21636XXSP,2013-01-24 00:42:00,
2013-01-23 17:43:00,45.3,12.0,30.21,NNE,22,0.8,3.1,26,0.00,,,0.00,WUHU21636XXSP,2013-01-24 00:43:00,
2013-01-23 17:44:00,45.3,12.0,30.21,NNE,22,0.0,3.1,26,0.00,,,0.00,WUHU21636XXSP,2013-01-24 00:44:00,
2013-01-23 17:47:00,45.1,11.8,30.21,NNE,22,0.0,3.1,26,0.00,,,0.00,WUHU21636XXSP,2013-01-24 00:47:00,
2013-01-23 17:48:00,45.1,11.8,30.21,NNE,22,0.0,2.4,26,0.00,,,0.00,WUHU21636XXSP,2013-01-24 00:48:00,
2013-01-23 17:49:00,44.8,11.5,30.21,NNE,22,2.0,2.4,26,0.00,,,0.00,WUHU21636XXSP,2013-01-24 00:49:00,
2013-01-23 17:52:00,44.8,11.5,30.21,NNE,22,2.6,2.6,26,0.00,,,0.00,WUHU21636XXSP,2013-01-24 00:52:00,
2013-01-23 17:53:00,44.4,11.3,30.21,NNE,22,2.1,2.6,26,0.00,,,0.00,WUHU21636XXSP,2013-01-24 00:53:00,
2013-01-23 17:54:00,44.4,11.3,30.21,NNE,22,1.6,2.6,26,0.00,,,0.00,WUHU21636XXSP,2013-01-24 00:54:00,
2013-01-23 17:57:00,44.2,11.1,30.21,NNE,22,2.9,2.9,26,0.00,,,0.00,WUHU21636XXSP,2013-01-24 00:57:00,
2013-01-23 17:58:00,44.2,11.1,30.21,NNE,22,2.9,2.9,26,0.00,,,0.00,WUHU21636XXSP,2013-01-24 00:58:00,
2013-01-23 17:59:00,44.2,11.1,30.21,NNE,22,2.9,2.9,26,0.00,,,0.00,WUHU21636XXSP,2013-01-24 00:59:00,
2013-01-23 18:02:00,44.1,10.9,30.21,NNE,22,3.3,3.3,26,0.00,,,0.00,WUHU21636XXSP,2013-01-24 01:02:00,
2013-01-23 18:03:00,43.9,10.8,30.21,NNE,22,3.2,3.3,26,0.00,,,0.00,WUHU21636XXSP,2013-01-24 01:03:00,
2013-01-23 18:04:00,43.9,10.8,30.21,NNE,22,3.1,3.3,26,0.00,,,0.00,WUHU21636XXSP,2013-01-24 01:04:00,
2013-01-23 18:07:00,43.7,10.6,30.22,NE,45,3.5,3.5,26,0.00,,,0.00,WUHU21636XXSP,2013-01-24 01:07:00,
2013-01-23 18:09:00,43.5,10.4,30.22,NE,45,2.5,3.5,26,0.00,,,0.00,WUHU21636XXSP,2013-01-24 01:09:00,
2013-01-23 18:10:00,43.5,10.4,30.22,NE,45,1.6,3.5,26,0.00,,,0.00,WUHU21636XXSP,2013-01-24 01:10:00,
2013-01-23 18:13:00,43.3,10.2,30.22,NE,45,0.3,3.5,26,0.00,,,0.00,WUHU21636XXSP,2013-01-24 01:13:00,
2013-01-23 18:15:00,43.2,10.0,30.22,NNE,22,0.0,3.5,26,0.00,,,0.00,WUHU21636XXSP,2013-01-24 01:15:00,
2013-01-23 18:19:00,43.0,9.9,30.22,NNE,21,1.8,2.0,26,0.00,,,0.00,WUHU21636XXSP,2013-01-24 01:19:00,
2013-01-23 18:20:00,43.0,9.9,30.22,NNE,17,1.1,2.0,26,0.00,,,0.00,WUHU21636XXSP,2013-01-24 01:20:00,
2013-01-23 18:24:00,42.6,9.7,30.22,North,0,1.1,2.0,26,0.00,,,0.00,WUHU21636XXSP,2013-01-24 01:24:00,
2013-01-23 18:25:00,42.4,9.5,30.22,North,0,1.0,2.0,26,0.00,,,0.00,WUHU21636XXSP,2013-01-24 01:25:00,
2013-01-23 18:29:00,42.3,9.3,30.22,North,0,0.0,1.1,26,0.00,,,0.00,WUHU21636XXSP,2013-01-24 01:29:00,
2013-01-23 18:30:00,42.3,9.3,30.22,North,0,0.0,1.1,26,0.00,,,0.00,WUHU21636XXSP,2013-01-24 01:30:00,
2013-01-23 18:31:00,42.3,9.3,30.22,North,0,0.0,1.1,26,0.00,,,0.00,WUHU21636XXSP,2013-01-24 01:31:00,
2013-01-23 18:34:00,41.9,9.1,30.22,North,0,0.0,1.1,26,0.00,,,0.00,WUHU21636XXSP,2013-01-24 01:34:00,
2013-01-23 18:35:00,41.9,9.1,30.22,North,0,0.0,0.0,26,0.00,,,0.00,WUHU21636XXSP,2013-01-24 01:35:00,
2013-01-23 18:36:00,41.7,9.0,30.22,North,0,0.0,0.0,26,0.00,,,0.00,WUHU21636XXSP,2013-01-24 01:36:00,
2013-01-23 18:39:00,41.7,9.0,30.22,North,0,0.0,0.0,26,0.00,,,0.00,WUHU21636XXSP,2013-01-24 01:39:00,
2013-01-23 18:41:00,41.5,8.8,30.22,North,0,0.0,0.0,26,0.00,,,0.00,WUHU21636XXSP,2013-01-24 01:41:00,
2013-01-23 18:44:00,41.2,8.4,30.22,North,0,0.0,0.0,26,0.00,,,0.00,WUHU21636XXSP,2013-01-24 01:44:00,
2013-01-23 18:46:00,41.2,8.4,30.22,North,0,0.0,0.0,26,0.00,,,0.00,WUHU21636XXSP,2013-01-24 01:46:00,
2013-01-23 18:50:00,40.8,9.1,30.22,North,0,0.0,0.0,27,0.00,,,0.00,WUHU21636XXSP,2013-01-24 01:50:00,
2013-01-23 18:51:00,40.6,9.0,30.22,North,0,0.0,0.0,27,0.00,,,0.00,WUHU21636XXSP,2013-01-24 01:51:00,
2013-01-23 18:55:00,40.3,8.6,30.22,North,0,0.0,0.0,27,0.00,,,0.00,WUHU21636XXSP,2013-01-24 01:55:00,
2013-01-23 18:56:00,40.3,8.6,30.21,North,0,0.0,0.0,27,0.00,,,0.00,WUHU21636XXSP,2013-01-24 01:56:00,
2013-01-23 18:57:00,40.3,8.6,30.21,North,0,0.0,0.0,27,0.00,,,0.00,WUHU21636XXSP,2013-01-24 01:57:00,
2013-01-23 19:00:00,40.1,8.4,30.22,North,0,0.0,0.0,27,0.00,,,0.00,WUHU21636XXSP,2013-01-24 02:00:00,
2013-01-23 19:01:00,39.9,8.2,30.22,North,0,0.0,0.0,27,0.00,,,0.00,WUHU21636XXSP,2013-01-24 02:01:00,
2013-01-23 19:02:00,39.9,8.2,30.22,North,0,0.0,0.0,27,0.00,,,0.00,WUHU21636XXSP,2013-01-24 02:02:00,
2013-01-23 19:05:00,39.9,8.2,30.22,NNW,337,1.3,1.3,28,0.00,,,0.00,WUHU21636XXSP,2013-01-24 02:05:00,
2013-01-23 19:06:00,39.7,9.0,30.22,NNW,337,0.7,1.3,28,0.00,,,0.00,WUHU21636XXSP,2013-01-24 02:06:00,
2013-01-23 19:07:00,39.7,9.0,30.22,NNW,337,0.6,1.3,28,0.00,,,0.00,WUHU21636XXSP,2013-01-24 02:07:00,
2013-01-23 19:10:00,39.6,8.8,30.22,NNW,337,3.3,3.3,28,0.00,,,0.00,WUHU21636XXSP,2013-01-24 02:10:00,
2013-01-23 19:11:00,39.6,8.8,30.22,NNW,337,3.3,3.3,28,0.00,,,0.00,WUHU21636XXSP,2013-01-24 02:11:00,
2013-01-23 19:12:00,39.6,8.8,30.22,NNW,337,3.3,3.3,28,0.00,,,0.00,WUHU21636XXSP,2013-01-24 02:12:00,
2013-01-23 19:15:00,39.2,8.6,30.22,NNW,337,0.0,3.3,28,0.00,,,0.00,WUHU21636XXSP,2013-01-24 02:15:00,
2013-01-23 19:17:00,39.0,8.4,30.21,NNW,337,0.0,3.3,28,0.00,,,0.00,WUHU21636XXSP,2013-01-24 02:17:00,
2013-01-23 19:20:00,38.8,9.1,30.21,NNW,337,1.5,3.3,29,0.00,,,0.00,WUHU21636XXSP,2013-01-24 02:20:00,
2013-01-23 19:22:00,38.8,9.1,30.21,NNW,337,0.7,3.3,29,0.00,,,0.00,WUHU21636XXSP,2013-01-24 02:22:00,
2013-01-23 19:25:00,38.5,8.8,30.21,NNW,337,0.0,1.5,29,0.00,,,0.00,WUHU21636XXSP,2013-01-24 02:25:00,
2013-01-23 19:27:00,38.5,8.8,30.21,NNW,337,0.0,1.5,29,0.00,,,0.00,WUHU21636XXSP,2013-01-24 02:27:00,
2013-01-23 19:31:00,38.3,8.6,30.21,NNW,337,1.3,1.5,29,0.00,,,0.00,WUHU21636XXSP,2013-01-24 02:31:00,
2013-01-23 19:32:00,38.1,9.3,30.21,NNW,337,1.5,1.5,30,0.00,,,0.00,WUHU21636XXSP,2013-01-24 02:32:00,
2013-01-23 19:36:00,37.9,9.1,30.21,NNW,337,1.0,1.5,30,0.00,,,0.00,WUHU21636XXSP,2013-01-24 02:36:00,
2013-01-23 19:37:00,37.9,9.1,30.21,NNW,337,0.4,1.5,30,0.00,,,0.00,WUHU21636XXSP,2013-01-24 02:37:00,
2013-01-23 19:41:00,37.8,8.1,30.21,NNW,337,0.0,1.5,29,0.00,,,0.00,WUHU21636XXSP,2013-01-24 02:41:00,
2013-01-23 19:42:00,37.8,8.1,30.21,NNW,337,0.0,1.5,29,0.00,,,0.00,WUHU21636XXSP,2013-01-24 02:42:00,
2013-01-23 19:46:00,37.6,8.8,30.21,NNW,337,0.0,2.6,30,0.00,,,0.00,WUHU21636XXSP,2013-01-24 02:46:00,
2013-01-23 19:47:00,37.4,8.8,30.21,NNW,337,0.0,2.6,30,0.00,,,0.00,WUHU21636XXSP,2013-01-24 02:47:00,
2013-01-23 19:48:00,37.4,8.8,30.21,NNW,337,0.0,2.6,30,0.00,,,0.00,WUHU21636XXSP,2013-01-24 02:48:00,
2013-01-23 19:51:00,37.2,8.6,30.21,NNW,337,0.0,2.6,30,0.00,,,0.00,WUHU21636XXSP,2013-01-24 02:51:00,
2013-01-23 19:52:00,37.2,8.6,30.21,NNW,337,0.0,2.6,30,0.00,,,0.00,WUHU21636XXSP,2013-01-24 02:52:00,
2013-01-23 19:53:00,37.2,8.6,30.21,NNW,337,0.0,2.6,30,0.00,,,0.00,WUHU21636XXSP,2013-01-24 02:53:00,
2013-01-23 19:56:00,37.0,9.0,30.21,NNW,337,0.0,0.0,30,0.00,,,0.00,WUHU21636XXSP,2013-01-24 02:56:00,
2013-01-23 19:57:00,37.0,9.0,30.21,NNW,337,0.0,0.0,31,0.00,,,0.00,WUHU21636XXSP,2013-01-24 02:57:00,
2013-01-23 19:58:00,37.0,9.0,30.21,NNW,337,0.0,0.0,31,0.00,,,0.00,WUHU21636XXSP,2013-01-24 02:58:00,
2013-01-23 20:01:00,36.7,8.8,30.21,NNW,337,0.0,0.0,31,0.00,,,0.00,WUHU21636XXSP,2013-01-24 03:01:00,
2013-01-23 20:02:00,36.7,8.8,30.21,NNW,337,0.0,0.0,31,0.00,,,0.00,WUHU21636XXSP,2013-01-24 03:02:00,
2013-01-23 20:03:00,36.7,8.8,30.21,NNW,337,0.0,0.0,31,0.00,,,0.00,WUHU21636XXSP,2013-01-24 03:03:00,
2013-01-23 20:07:00,36.7,8.8,30.21,NNW,337,0.0,0.0,31,0.00,,,0.00,WUHU21636XXSP,2013-01-24 03:07:00,
2013-01-23 20:08:00,36.7,8.8,30.21,NNW,337,0.0,0.0,31,0.00,,,0.00,WUHU21636XXSP,2013-01-24 03:08:00,
2013-01-23 20:12:00,36.7,8.8,30.21,NNW,337,0.0,0.0,32,0.00,,,0.00,WUHU21636XXSP,2013-01-24 03:12:00,
2013-01-23 20:13:00,36.7,8.8,30.21,NNW,337,0.0,0.0,32,0.00,,,0.00,WUHU21636XXSP,2013-01-24 03:13:00,
2013-01-23 20:17:00,36.5,9.1,30.20,NNW,337,0.0,0.0,32,0.00,,,0.00,WUHU21636XXSP,2013-01-24 03:17:00,
2013-01-23 20:18:00,36.5,9.1,30.20,NNW,337,0.0,0.0,32,0.00,,,0.00,WUHU21636XXSP,2013-01-24 03:18:00,
2013-01-23 20:22:00,36.3,9.0,30.21,NNW,337,0.0,0.0,32,0.00,,,0.00,WUHU21636XXSP,2013-01-24 03:22:00,
2013-01-23 20:23:00,36.1,8.8,30.21,NNW,337,0.0,0.0,32,0.00,,,0.00,WUHU21636XXSP,2013-01-24 03:23:00,
2013-01-23 20:28:00,36.0,9.3,30.21,NNW,337,0.0,0.0,33,0.00,,,0.00,WUHU21636XXSP,2013-01-24 03:28:00,
2013-01-23 20:33:00,35.8,9.1,30.21,NNW,337,0.0,0.0,33,0.00,,,0.00,WUHU21636XXSP,2013-01-24 03:33:00,
2013-01-23 20:34:00,35.8,9.1,30.21,NNW,337,0.0,0.0,33,0.00,,,0.00,WUHU21636XXSP,2013-01-24 03:34:00,
2013-01-23 20:38:00,35.4,8.8,30.20,NNW,337,0.0,0.0,33,0.00,,,0.00,WUHU21636XXSP,2013-01-24 03:38:00,
2013-01-23 20:39:00,35.4,8.8,30.21,NNW,337,0.0,0.0,33,0.00,,,0.00,WUHU21636XXSP,2013-01-24 03:39:00,
2013-01-23 20:43:00,35.4,8.8,30.21,NNW,337,0.0,0.0,33,0.00,,,0.00,WUHU21636XXSP,2013-01-24 03:43:00,
2013-01-23 20:44:00,35.4,8.8,30.21,NNW,337,0.0,0.0,33,0.00,,,0.00,WUHU21636XXSP,2013-01-24 03:44:00,
2013-01-23 20:48:00,35.2,8.8,30.21,NNW,337,0.1,0.6,33,0.00,,,0.00,WUHU21636XXSP,2013-01-24 03:48:00,
2013-01-23 20:49:00,35.2,8.8,30.21,NNW,337,0.0,0.6,33,0.00,,,0.00,WUHU21636XXSP,2013-01-24 03:49:00,
2013-01-23 20:53:00,35.2,8.8,30.21,NE,45,0.6,2.4,33,0.00,,,0.00,WUHU21636XXSP,2013-01-24 03:53:00,
2013-01-23 20:54:00,35.2,8.8,30.21,NE,45,0.6,2.4,33,0.00,,,0.00,WUHU21636XXSP,2013-01-24 03:54:00,
2013-01-23 20:58:00,35.1,8.6,30.21,NNE,22,0.4,2.4,33,0.00,,,0.00,WUHU21636XXSP,2013-01-24 03:58:00,
2013-01-23 20:59:00,35.1,8.6,30.21,NNE,22,0.3,2.4,33,0.00,,,0.00,WUHU21636XXSP,2013-01-24 03:59:00,
2013-01-23 21:04:00,34.9,8.4,30.21,NNE,22,2.0,2.0,33,0.00,,,0.00,WUHU21636XXSP,2013-01-24 04:04:00,
2013-01-23 21:09:00,35.1,8.6,30.22,North,0,1.6,2.9,33,0.00,,,0.00,WUHU21636XXSP,2013-01-24 04:09:00,
2013-01-23 21:10:00,35.1,8.6,30.22,North,0,0.4,2.9,33,0.00,,,0.00,WUHU21636XXSP,2013-01-24 04:10:00,
2013-01-23 21:14:00,35.2,8.8,30.21,ENE,67,0.0,2.9,34,0.00,,,0.00,WUHU21636XXSP,2013-01-24 04:14:00,
2013-01-23 21:15:00,35.2,8.8,30.21,NE,45,0.6,2.9,33,0.00,,,0.00,WUHU21636XXSP,2013-01-24 04:15:00,
2013-01-23 21:19:00,35.2,8.8,30.21,NE,45,0.0,0.6,33,0.00,,,0.00,WUHU21636XXSP,2013-01-24 04:19:00,
2013-01-23 21:20:00,35.2,8.8,30.21,NE,45,0.0,0.6,33,0.00,,,0.00,WUHU21636XXSP,2013-01-24 04:20:00,
2013-01-23 21:24:00,35.2,8.8,30.21,ENE,67,3.8,3.8,33,0.00,,,0.00,WUHU21636XXSP,2013-01-24 04:24:00,
2013-01-23 21:25:00,35.2,8.8,30.21,ENE,67,3.8,3.8,33,0.00,,,0.00,WUHU21636XXSP,2013-01-24 04:25:00,
2013-01-23 21:29:00,35.4,8.8,30.21,ENE,67,0.1,3.8,33,0.00,,,0.00,WUHU21636XXSP,2013-01-24 04:29:00,
2013-01-23 21:30:00,35.6,8.4,30.21,ENE,67,0.0,3.8,32,0.00,,,0.00,WUHU21636XXSP,2013-01-24 04:30:00,
2013-01-23 21:34:00,35.6,8.4,30.21,ENE,67,0.0,3.8,32,0.00,,,0.00,WUHU21636XXSP,2013-01-24 04:34:00,
2013-01-23 21:35:00,35.6,8.4,30.21,ENE,67,0.0,3.8,32,0.00,,,0.00,WUHU21636XXSP,2013-01-24 04:35:00,
2013-01-23 21:39:00,35.6,8.4,30.21,ENE,67,0.9,3.8,32,0.00,,,0.00,WUHU21636XXSP,2013-01-24 04:39:00,
2013-01-23 21:40:00,35.6,8.4,30.21,ENE,67,0.6,3.8,32,0.00,,,0.00,WUHU21636XXSP,2013-01-24 04:40:00,
2013-01-23 21:45:00,35.8,7.9,30.21,NNE,22,2.9,3.8,31,0.00,,,0.00,WUHU21636XXSP,2013-01-24 04:45:00,
2013-01-23 21:50:00,35.8,7.9,30.22,NNE,22,1.0,2.9,31,0.00,,,0.00,WUHU21636XXSP,2013-01-24 04:50:00,
2013-01-23 21:51:00,35.8,7.9,30.22,NNE,22,0.0,2.9,31,0.00,,,0.00,WUHU21636XXSP,2013-01-24 04:51:00,
2013-01-23 21:55:00,35.6,7.7,30.22,NE,45,2.2,2.9,31,0.00,,,0.00,WUHU21636XXSP,2013-01-24 04:55:00,
2013-01-23 21:56:00,35.6,7.7,30.22,NNE,22,2.4,2.9,31,0.00,,,0.00,WUHU21636XXSP,2013-01-24 04:56:00,
2013-01-23 22:00:00,35.4,7.5,30.22,ENE,67,0.8,2.4,31,0.00,,,0.00,WUHU21636XXSP,2013-01-24 05:00:00,
2013-01-23 22:01:00,35.4,7.5,30.22,ENE,67,0.3,2.4,31,0.00,,,0.00,WUHU21636XXSP,2013-01-24 05:01:00,
2013-01-23 22:05:00,35.4,7.5,30.23,East,90,0.5,2.4,31,0.00,,,0.00,WUHU21636XXSP,2013-01-24 05:05:00,
2013-01-23 22:06:00,35.4,7.5,30.23,East,90,0.2,2.4,31,0.00,,,0.00,WUHU21636XXSP,2013-01-24 05:06:00,
2013-01-23 22:10:00,35.4,7.5,30.22,NNE,22,0.4,2.2,31,0.00,,,0.00,WUHU21636XXSP,2013-01-24 05:10:00,
2013-01-23 22:11:00,35.2,8.1,30.22,NNE,22,4.0,4.0,32,0.00,,,0.00,WUHU21636XXSP,2013-01-24 05:11:00,
2013-01-23 22:16:00,35.2,8.1,30.23,NNE,22,3.1,4.0,32,0.00,,,0.00,WUHU21636XXSP,2013-01-24 05:16:00,
2013-01-23 22:17:00,35.2,8.1,30.22,NNE,22,3.1,4.0,32,0.00,,,0.00,WUHU21636XXSP,2013-01-24 05:17:00,
2013-01-23 22:21:00,35.2,8.1,30.23,East,90,0.0,4.0,33,0.00,,,0.00,WUHU21636XXSP,2013-01-24 05:21:00,
2013-01-23 22:22:00,35.1,7.9,30.22,East,90,0.0,4.0,32,0.00,,,0.00,WUHU21636XXSP,2013-01-24 05:22:00,
2013-01-23 22:26:00,35.1,7.9,30.22,NNE,22,1.6,3.1,32,0.00,,,0.00,WUHU21636XXSP,2013-01-24 05:26:00,
2013-01-23 22:27:00,35.1,7.9,30.22,NNE,22,0.8,3.1,32,0.00,,,0.00,WUHU21636XXSP,2013-01-24 05:27:00,
2013-01-23 22:31:00,35.1,7.9,30.22,NE,45,0.0,2.2,33,0.00,,,0.00,WUHU21636XXSP,2013-01-24 05:31:00,
2013-01-23 22:32:00,35.1,7.9,30.22,NE,45,0.0,2.2,33,0.00,,,0.00,WUHU21636XXSP,2013-01-24 05:32:00,
2013-01-23 22:36:00,34.9,8.4,30.22,NNE,22,0.0,0.0,33,0.00,,,0.00,WUHU21636XXSP,2013-01-24 05:36:00,
2013-01-23 22:37:00,34.9,8.4,30.22,NNE,22,1.7,1.7,33,0.00,,,0.00,WUHU21636XXSP,2013-01-24 05:37:00,
2013-01-23 22:41:00,34.7,8.2,30.22,NNE,22,2.6,2.6,33,0.00,,,0.00,WUHU21636XXSP,2013-01-24 05:41:00,
2013-01-23 22:42:00,34.7,8.2,30.22,NNE,22,2.6,2.6,33,0.00,,,0.00,WUHU21636XXSP,2013-01-24 05:42:00,
2013-01-23 22:46:00,34.7,8.2,30.22,NE,45,0.0,2.6,34,0.00,,,0.00,WUHU21636XXSP,2013-01-24 05:46:00,
2013-01-23 22:47:00,34.7,8.2,30.22,NE,45,0.0,2.6,34,0.00,,,0.00,WUHU21636XXSP,2013-01-24 05:47:00,
2013-01-23 22:51:00,34.7,8.2,30.22,NE,45,0.0,2.6,33,0.00,,,0.00,WUHU21636XXSP,2013-01-24 05:51:00,
2013-01-23 22:52:00,34.7,8.2,30.22,NE,45,0.0,2.6,33,0.00,,,0.00,WUHU21636XXSP,2013-01-24 05:52:00,
2013-01-23 22:56:00,34.7,8.2,30.22,NE,45,0.0,0.0,34,0.00,,,0.00,WUHU21636XXSP,2013-01-24 05:56:00,
2013-01-23 22:57:00,34.7,8.2,30.22,NE,45,0.0,0.0,34,0.00,,,0.00,WUHU21636XXSP,2013-01-24 05:57:00,
2013-01-23 23:02:00,34.5,8.8,30.21,NE,45,0.0,0.0,33,0.00,,,0.00,WUHU21636XXSP,2013-01-24 06:02:00,
2013-01-23 23:07:00,34.5,8.8,30.21,ENE,67,0.0,0.0,34,0.00,,,0.00,WUHU21636XXSP,2013-01-24 06:07:00,
2013-01-23 23:08:00,34.5,8.8,30.21,ENE,67,0.0,0.0,34,0.00,,,0.00,WUHU21636XXSP,2013-01-24 06:08:00,
2013-01-23 23:12:00,34.3,8.6,30.21,ENE,67,0.0,0.0,34,0.00,,,0.00,WUHU21636XXSP,2013-01-24 06:12:00,
2013-01-23 23:13:00,34.2,8.4,30.21,ENE,67,0.0,0.0,34,0.00,,,0.00,WUHU21636XXSP,2013-01-24 06:13:00,
2013-01-23 23:17:00,34.0,8.2,30.21,ENE,67,0.0,0.0,34,0.00,,,0.00,WUHU21636XXSP,2013-01-24 06:17:00,
2013-01-23 23:18:00,34.0,8.2,30.21,ENE,67,0.0,0.0,34,0.00,,,0.00,WUHU21636XXSP,2013-01-24 06:18:00,
2013-01-23 23:22:00,34.0,8.2,30.21,ENE,67,0.0,0.0,34,0.00,,,0.00,WUHU21636XXSP,2013-01-24 06:22:00,
2013-01-23 23:23:00,34.0,8.2,30.21,ENE,67,0.0,0.0,34,0.00,,,0.00,WUHU21636XXSP,2013-01-24 06:23:00,
2013-01-23 23:27:00,34.0,8.2,30.21,ENE,67,0.0,0.0,34,0.00,,,0.00,WUHU21636XXSP,2013-01-24 06:27:00,
2013-01-23 23:28:00,34.0,8.2,30.21,ENE,67,0.0,0.0,35,0.00,,,0.00,WUHU21636XXSP,2013-01-24 06:28:00,
2013-01-23 23:33:00,33.6,8.6,30.21,NNE,22,2.7,4.2,35,0.00,,,0.00,WUHU21636XXSP,2013-01-24 06:33:00,
2013-01-23 23:34:00,33.6,8.6,30.21,NNE,22,0.4,4.2,35,0.00,,,0.00,WUHU21636XXSP,2013-01-24 06:34:00,
2013-01-23 23:38:00,33.6,8.6,30.21,NNE,22,0.9,4.2,36,0.00,,,0.00,WUHU21636XXSP,2013-01-24 06:38:00,
2013-01-23 23:39:00,33.6,8.6,30.21,NNW,337,0.0,4.2,36,0.00,,,0.00,WUHU21636XXSP,2013-01-24 06:39:00,
2013-01-23 23:43:00,33.6,8.6,30.21,NNW,337,1.3,3.8,36,0.00,,,0.00,WUHU21636XXSP,2013-01-24 06:43:00,
2013-01-23 23:44:00,33.6,8.6,30.21,NNW,337,1.3,3.8,36,0.00,,,0.00,WUHU21636XXSP,2013-01-24 06:44:00,
2013-01-23 23:48:00,33.6,8.6,30.21,NNE,22,1.3,1.3,36,0.00,,,0.00,WUHU21636XXSP,2013-01-24 06:48:00,
2013-01-23 23:49:00,33.6,8.6,30.20,NNE,22,1.3,1.3,36,0.00,,,0.00,WUHU21636XXSP,2013-01-24 06:49:00,
2013-01-23 23:53:00,33.6,8.6,30.20,NNE,22,2.0,2.0,36,0.00,,,0.00,WUHU21636XXSP,2013-01-24 06:53:00,
2013-01-23 23:54:00,33.6,8.6,30.20,North,0,2.9,2.9,37,0.00,,,0.00,WUHU21636XXSP,2013-01-24 06:54:00,
2013-01-23 23:55:00,33.6,8.6,30.21,North,0,2.9,2.9,37,0.00,,,0.00,WUHU21636XXSP,2013-01-24 06:55:00,
2013-01-23 23:58:00,33.6,8.6,30.20,NNE,22,3.1,3.1,37,0.00,,,0.00,WUHU21636XXSP,2013-01-24 06:58:00,